<?xml version="1.0" encoding="UTF-8" standalone="no" ?>
<gpx xmlns="http://www.topografix.com/GPX/1/1" xmlns:xsi="http://www.w3.org/2001/XMLSchema-instance" xsi:schemaLocation="http://www.topografix.com/GPX/1/1 http://www.topografix.com/GPX/1/1/gpx.xsd" version="1.1" creator="VisuGPX - https://www.visugpx.com">
  <metadata>
    <name>Poteau Bongard 1</name>
    <desc><![CDATA[Parcours plat, sauf une petite cote. Sec en hivers. Parfait pour pratiquer correctement la marche Nordique. Plusieurs variantes possibles, mais après une période sèche, sinon chemins boueux.]]></desc>
  </metadata>
  <trk>
    <name><![CDATA[Poteau Bongard 1]]></name>
    <trkseg>
      <trkpt lat="48.64077" lon="1.88745">
        <ele>226.05</ele>
        <time>2022-04-10T09:26:30Z</time>
      </trkpt>
      <trkpt lat="48.64078" lon="1.88744">
        <ele>194.8</ele>
        <time>2022-04-10T09:26:19Z</time>
      </trkpt>
      <trkpt lat="48.64082" lon="1.88744">
        <ele>194.8</ele>
        <time>2022-04-10T09:25:54Z</time>
      </trkpt>
      <trkpt lat="48.64086" lon="1.88745">
        <ele>195.77</ele>
        <time>2022-04-10T09:25:13Z</time>
      </trkpt>
      <trkpt lat="48.64086" lon="1.88749">
        <ele>195.77</ele>
        <time>2022-04-10T09:24:46Z</time>
      </trkpt>
      <trkpt lat="48.64082" lon="1.88762">
        <ele>194.8</ele>
        <time>2022-04-10T09:24:17Z</time>
      </trkpt>
      <trkpt lat="48.64083" lon="1.88768">
        <ele>194.8</ele>
        <time>2022-04-10T09:24:13Z</time>
      </trkpt>
      <trkpt lat="48.64085" lon="1.88816">
        <ele>194.8</ele>
        <time>2022-04-10T09:23:53Z</time>
      </trkpt>
      <trkpt lat="48.64076" lon="1.88846">
        <ele>194.8</ele>
        <time>2022-04-10T09:23:38Z</time>
      </trkpt>
      <trkpt lat="48.64066" lon="1.88882">
        <ele>193.84</ele>
        <time>2022-04-10T09:23:21Z</time>
      </trkpt>
      <trkpt lat="48.64056" lon="1.88909">
        <ele>194.8</ele>
        <time>2022-04-10T09:23:05Z</time>
      </trkpt>
      <trkpt lat="48.64046" lon="1.88944">
        <ele>193.84</ele>
        <time>2022-04-10T09:22:48Z</time>
      </trkpt>
      <trkpt lat="48.64036" lon="1.88973">
        <ele>193.84</ele>
        <time>2022-04-10T09:22:32Z</time>
      </trkpt>
      <trkpt lat="48.64025" lon="1.88998">
        <ele>193.84</ele>
        <time>2022-04-10T09:22:17Z</time>
      </trkpt>
      <trkpt lat="48.64014" lon="1.89024">
        <ele>193.84</ele>
        <time>2022-04-10T09:22:02Z</time>
      </trkpt>
      <trkpt lat="48.64001" lon="1.89063">
        <ele>193.84</ele>
        <time>2022-04-10T09:21:42Z</time>
      </trkpt>
      <trkpt lat="48.63988" lon="1.89093">
        <ele>193.84</ele>
        <time>2022-04-10T09:21:25Z</time>
      </trkpt>
      <trkpt lat="48.63977" lon="1.89129">
        <ele>192.88</ele>
        <time>2022-04-10T09:21:07Z</time>
      </trkpt>
      <trkpt lat="48.6396" lon="1.89174">
        <ele>192.88</ele>
        <time>2022-04-10T09:20:47Z</time>
      </trkpt>
      <trkpt lat="48.63957" lon="1.89184">
        <ele>192.88</ele>
        <time>2022-04-10T09:20:41Z</time>
      </trkpt>
      <trkpt lat="48.63944" lon="1.8922">
        <ele>192.88</ele>
        <time>2022-04-10T09:20:21Z</time>
      </trkpt>
      <trkpt lat="48.63936" lon="1.89256">
        <ele>192.88</ele>
        <time>2022-04-10T09:20:03Z</time>
      </trkpt>
      <trkpt lat="48.63922" lon="1.89295">
        <ele>192.88</ele>
        <time>2022-04-10T09:19:43Z</time>
      </trkpt>
      <trkpt lat="48.63909" lon="1.89331">
        <ele>192.88</ele>
        <time>2022-04-10T09:19:24Z</time>
      </trkpt>
      <trkpt lat="48.63894" lon="1.89361">
        <ele>192.88</ele>
        <time>2022-04-10T09:19:06Z</time>
      </trkpt>
      <trkpt lat="48.63892" lon="1.89364">
        <ele>192.88</ele>
        <time>2022-04-10T09:19:04Z</time>
      </trkpt>
      <trkpt lat="48.63876" lon="1.89398">
        <ele>192.88</ele>
        <time>2022-04-10T09:18:48Z</time>
      </trkpt>
      <trkpt lat="48.63869" lon="1.89413">
        <ele>192.88</ele>
        <time>2022-04-10T09:18:39Z</time>
      </trkpt>
      <trkpt lat="48.63857" lon="1.89449">
        <ele>192.88</ele>
        <time>2022-04-10T09:18:15Z</time>
      </trkpt>
      <trkpt lat="48.6386" lon="1.89462">
        <ele>192.88</ele>
        <time>2022-04-10T09:18:00Z</time>
      </trkpt>
      <trkpt lat="48.63863" lon="1.89468">
        <ele>191.92</ele>
        <time>2022-04-10T09:17:55Z</time>
      </trkpt>
      <trkpt lat="48.63864" lon="1.89471">
        <ele>191.92</ele>
        <time>2022-04-10T09:17:52Z</time>
      </trkpt>
      <trkpt lat="48.63877" lon="1.89485">
        <ele>191.92</ele>
        <time>2022-04-10T09:17:34Z</time>
      </trkpt>
      <trkpt lat="48.63882" lon="1.89489">
        <ele>191.92</ele>
        <time>2022-04-10T09:17:29Z</time>
      </trkpt>
      <trkpt lat="48.63898" lon="1.89507">
        <ele>191.92</ele>
        <time>2022-04-10T09:17:14Z</time>
      </trkpt>
      <trkpt lat="48.63909" lon="1.89524">
        <ele>191.92</ele>
        <time>2022-04-10T09:17:03Z</time>
      </trkpt>
      <trkpt lat="48.63925" lon="1.89545">
        <ele>191.92</ele>
        <time>2022-04-10T09:16:49Z</time>
      </trkpt>
      <trkpt lat="48.6394" lon="1.89558">
        <ele>191.92</ele>
        <time>2022-04-10T09:16:37Z</time>
      </trkpt>
      <trkpt lat="48.63951" lon="1.89571">
        <ele>191.92</ele>
        <time>2022-04-10T09:16:27Z</time>
      </trkpt>
      <trkpt lat="48.63952" lon="1.89576">
        <ele>191.92</ele>
        <time>2022-04-10T09:16:25Z</time>
      </trkpt>
      <trkpt lat="48.63971" lon="1.89593">
        <ele>191.92</ele>
        <time>2022-04-10T09:16:09Z</time>
      </trkpt>
      <trkpt lat="48.63975" lon="1.89598">
        <ele>191.92</ele>
        <time>2022-04-10T09:16:05Z</time>
      </trkpt>
      <trkpt lat="48.63997" lon="1.89622">
        <ele>192.88</ele>
        <time>2022-04-10T09:15:46Z</time>
      </trkpt>
      <trkpt lat="48.64003" lon="1.89629">
        <ele>192.88</ele>
        <time>2022-04-10T09:15:41Z</time>
      </trkpt>
      <trkpt lat="48.64021" lon="1.89649">
        <ele>192.88</ele>
        <time>2022-04-10T09:15:25Z</time>
      </trkpt>
      <trkpt lat="48.64036" lon="1.89668">
        <ele>192.88</ele>
        <time>2022-04-10T09:15:10Z</time>
      </trkpt>
      <trkpt lat="48.6404" lon="1.89671">
        <ele>192.88</ele>
        <time>2022-04-10T09:15:06Z</time>
      </trkpt>
      <trkpt lat="48.64059" lon="1.89695">
        <ele>192.88</ele>
        <time>2022-04-10T09:14:49Z</time>
      </trkpt>
      <trkpt lat="48.64076" lon="1.89713">
        <ele>192.88</ele>
        <time>2022-04-10T09:14:33Z</time>
      </trkpt>
      <trkpt lat="48.64098" lon="1.89737">
        <ele>192.88</ele>
        <time>2022-04-10T09:14:15Z</time>
      </trkpt>
      <trkpt lat="48.64102" lon="1.89743">
        <ele>192.88</ele>
        <time>2022-04-10T09:14:11Z</time>
      </trkpt>
      <trkpt lat="48.64111" lon="1.89751">
        <ele>192.88</ele>
        <time>2022-04-10T09:14:04Z</time>
      </trkpt>
      <trkpt lat="48.64114" lon="1.89756">
        <ele>192.88</ele>
        <time>2022-04-10T09:14:01Z</time>
      </trkpt>
      <trkpt lat="48.64128" lon="1.89769">
        <ele>192.88</ele>
        <time>2022-04-10T09:13:50Z</time>
      </trkpt>
      <trkpt lat="48.64131" lon="1.89773">
        <ele>192.88</ele>
        <time>2022-04-10T09:13:47Z</time>
      </trkpt>
      <trkpt lat="48.64149" lon="1.89789">
        <ele>192.88</ele>
        <time>2022-04-10T09:13:31Z</time>
      </trkpt>
      <trkpt lat="48.64166" lon="1.89813">
        <ele>192.88</ele>
        <time>2022-04-10T09:13:17Z</time>
      </trkpt>
      <trkpt lat="48.64174" lon="1.8982">
        <ele>192.88</ele>
        <time>2022-04-10T09:13:11Z</time>
      </trkpt>
      <trkpt lat="48.64182" lon="1.89829">
        <ele>191.92</ele>
        <time>2022-04-10T09:13:04Z</time>
      </trkpt>
      <trkpt lat="48.64187" lon="1.89834">
        <ele>191.92</ele>
        <time>2022-04-10T09:13:00Z</time>
      </trkpt>
      <trkpt lat="48.64199" lon="1.89851">
        <ele>191.92</ele>
        <time>2022-04-10T09:12:49Z</time>
      </trkpt>
      <trkpt lat="48.64214" lon="1.89865">
        <ele>192.88</ele>
        <time>2022-04-10T09:12:36Z</time>
      </trkpt>
      <trkpt lat="48.64229" lon="1.89879">
        <ele>192.88</ele>
        <time>2022-04-10T09:12:21Z</time>
      </trkpt>
      <trkpt lat="48.64241" lon="1.89893">
        <ele>192.88</ele>
        <time>2022-04-10T09:12:10Z</time>
      </trkpt>
      <trkpt lat="48.64258" lon="1.89913">
        <ele>192.88</ele>
        <time>2022-04-10T09:11:53Z</time>
      </trkpt>
      <trkpt lat="48.64277" lon="1.89935">
        <ele>192.88</ele>
        <time>2022-04-10T09:11:37Z</time>
      </trkpt>
      <trkpt lat="48.64297" lon="1.89958">
        <ele>192.88</ele>
        <time>2022-04-10T09:11:19Z</time>
      </trkpt>
      <trkpt lat="48.64316" lon="1.89983">
        <ele>192.88</ele>
        <time>2022-04-10T09:11:02Z</time>
      </trkpt>
      <trkpt lat="48.64321" lon="1.89989">
        <ele>192.88</ele>
        <time>2022-04-10T09:10:58Z</time>
      </trkpt>
      <trkpt lat="48.64341" lon="1.90009">
        <ele>192.88</ele>
        <time>2022-04-10T09:10:43Z</time>
      </trkpt>
      <trkpt lat="48.64358" lon="1.90027">
        <ele>192.88</ele>
        <time>2022-04-10T09:10:28Z</time>
      </trkpt>
      <trkpt lat="48.64378" lon="1.90049">
        <ele>192.88</ele>
        <time>2022-04-10T09:10:10Z</time>
      </trkpt>
      <trkpt lat="48.64383" lon="1.90051">
        <ele>192.88</ele>
        <time>2022-04-10T09:10:06Z</time>
      </trkpt>
      <trkpt lat="48.64389" lon="1.90059">
        <ele>192.88</ele>
        <time>2022-04-10T09:09:59Z</time>
      </trkpt>
      <trkpt lat="48.64406" lon="1.90077">
        <ele>192.88</ele>
        <time>2022-04-10T09:09:44Z</time>
      </trkpt>
      <trkpt lat="48.64426" lon="1.90103">
        <ele>193.84</ele>
        <time>2022-04-10T09:09:26Z</time>
      </trkpt>
      <trkpt lat="48.64447" lon="1.90126">
        <ele>193.84</ele>
        <time>2022-04-10T09:09:08Z</time>
      </trkpt>
      <trkpt lat="48.64466" lon="1.90146">
        <ele>193.84</ele>
        <time>2022-04-10T09:08:52Z</time>
      </trkpt>
      <trkpt lat="48.64483" lon="1.90169">
        <ele>193.84</ele>
        <time>2022-04-10T09:08:39Z</time>
      </trkpt>
      <trkpt lat="48.64512" lon="1.90197">
        <ele>193.84</ele>
        <time>2022-04-10T09:08:18Z</time>
      </trkpt>
      <trkpt lat="48.6453" lon="1.90223">
        <ele>193.84</ele>
        <time>2022-04-10T09:08:01Z</time>
      </trkpt>
      <trkpt lat="48.64562" lon="1.90251">
        <ele>193.84</ele>
        <time>2022-04-10T09:07:38Z</time>
      </trkpt>
      <trkpt lat="48.64588" lon="1.90273">
        <ele>192.88</ele>
        <time>2022-04-10T09:07:18Z</time>
      </trkpt>
      <trkpt lat="48.64609" lon="1.90298">
        <ele>192.88</ele>
        <time>2022-04-10T09:07:01Z</time>
      </trkpt>
      <trkpt lat="48.64634" lon="1.90324">
        <ele>191.92</ele>
        <time>2022-04-10T09:06:42Z</time>
      </trkpt>
      <trkpt lat="48.64651" lon="1.9034">
        <ele>192.88</ele>
        <time>2022-04-10T09:06:29Z</time>
      </trkpt>
      <trkpt lat="48.64672" lon="1.90367">
        <ele>192.88</ele>
        <time>2022-04-10T09:06:11Z</time>
      </trkpt>
      <trkpt lat="48.64679" lon="1.90373">
        <ele>192.88</ele>
        <time>2022-04-10T09:06:05Z</time>
      </trkpt>
      <trkpt lat="48.6469" lon="1.90389">
        <ele>192.88</ele>
        <time>2022-04-10T09:05:53Z</time>
      </trkpt>
      <trkpt lat="48.64708" lon="1.90406">
        <ele>192.88</ele>
        <time>2022-04-10T09:05:37Z</time>
      </trkpt>
      <trkpt lat="48.64727" lon="1.90432">
        <ele>192.88</ele>
        <time>2022-04-10T09:05:19Z</time>
      </trkpt>
      <trkpt lat="48.64748" lon="1.90457">
        <ele>192.88</ele>
        <time>2022-04-10T09:05:02Z</time>
      </trkpt>
      <trkpt lat="48.64761" lon="1.90471">
        <ele>192.88</ele>
        <time>2022-04-10T09:04:51Z</time>
      </trkpt>
      <trkpt lat="48.64768" lon="1.90478">
        <ele>192.88</ele>
        <time>2022-04-10T09:04:46Z</time>
      </trkpt>
      <trkpt lat="48.64774" lon="1.90482">
        <ele>192.88</ele>
        <time>2022-04-10T09:04:42Z</time>
      </trkpt>
      <trkpt lat="48.6478" lon="1.90492">
        <ele>192.88</ele>
        <time>2022-04-10T09:04:36Z</time>
      </trkpt>
      <trkpt lat="48.64784" lon="1.90496">
        <ele>192.88</ele>
        <time>2022-04-10T09:04:33Z</time>
      </trkpt>
      <trkpt lat="48.64788" lon="1.90502">
        <ele>192.88</ele>
        <time>2022-04-10T09:04:29Z</time>
      </trkpt>
      <trkpt lat="48.64795" lon="1.90503">
        <ele>191.92</ele>
        <time>2022-04-10T09:04:20Z</time>
      </trkpt>
      <trkpt lat="48.64813" lon="1.9052">
        <ele>191.92</ele>
        <time>2022-04-10T09:04:04Z</time>
      </trkpt>
      <trkpt lat="48.64819" lon="1.90526">
        <ele>191.92</ele>
        <time>2022-04-10T09:03:59Z</time>
      </trkpt>
      <trkpt lat="48.64833" lon="1.90544">
        <ele>191.92</ele>
        <time>2022-04-10T09:03:46Z</time>
      </trkpt>
      <trkpt lat="48.64862" lon="1.90573">
        <ele>191.92</ele>
        <time>2022-04-10T09:03:23Z</time>
      </trkpt>
      <trkpt lat="48.6489" lon="1.90606">
        <ele>191.92</ele>
        <time>2022-04-10T09:03:01Z</time>
      </trkpt>
      <trkpt lat="48.64907" lon="1.90633">
        <ele>191.92</ele>
        <time>2022-04-10T09:02:46Z</time>
      </trkpt>
      <trkpt lat="48.64933" lon="1.90662">
        <ele>191.92</ele>
        <time>2022-04-10T09:02:29Z</time>
      </trkpt>
      <trkpt lat="48.64954" lon="1.90675">
        <ele>190.96</ele>
        <time>2022-04-10T09:02:16Z</time>
      </trkpt>
      <trkpt lat="48.64969" lon="1.9069">
        <ele>190.96</ele>
        <time>2022-04-10T09:02:03Z</time>
      </trkpt>
      <trkpt lat="48.64981" lon="1.90711">
        <ele>190.96</ele>
        <time>2022-04-10T09:01:50Z</time>
      </trkpt>
      <trkpt lat="48.64994" lon="1.90726">
        <ele>191.92</ele>
        <time>2022-04-10T09:01:39Z</time>
      </trkpt>
      <trkpt lat="48.65005" lon="1.90736">
        <ele>190.96</ele>
        <time>2022-04-10T09:01:30Z</time>
      </trkpt>
      <trkpt lat="48.65007" lon="1.90739">
        <ele>190.96</ele>
        <time>2022-04-10T09:01:28Z</time>
      </trkpt>
      <trkpt lat="48.65013" lon="1.90745">
        <ele>191.92</ele>
        <time>2022-04-10T09:01:24Z</time>
      </trkpt>
      <trkpt lat="48.65023" lon="1.90758">
        <ele>190.96</ele>
        <time>2022-04-10T09:01:13Z</time>
      </trkpt>
      <trkpt lat="48.65044" lon="1.90784">
        <ele>191.92</ele>
        <time>2022-04-10T09:00:57Z</time>
      </trkpt>
      <trkpt lat="48.65064" lon="1.90802">
        <ele>191.92</ele>
        <time>2022-04-10T09:00:42Z</time>
      </trkpt>
      <trkpt lat="48.65081" lon="1.90819">
        <ele>190.96</ele>
        <time>2022-04-10T09:00:28Z</time>
      </trkpt>
      <trkpt lat="48.65104" lon="1.90839">
        <ele>190.96</ele>
        <time>2022-04-10T09:00:11Z</time>
      </trkpt>
      <trkpt lat="48.65109" lon="1.90843">
        <ele>190.96</ele>
        <time>2022-04-10T09:00:07Z</time>
      </trkpt>
      <trkpt lat="48.65111" lon="1.90846">
        <ele>190.96</ele>
        <time>2022-04-10T09:00:05Z</time>
      </trkpt>
      <trkpt lat="48.65133" lon="1.90866">
        <ele>190.96</ele>
        <time>2022-04-10T08:59:48Z</time>
      </trkpt>
      <trkpt lat="48.65142" lon="1.90883">
        <ele>190.96</ele>
        <time>2022-04-10T08:59:36Z</time>
      </trkpt>
      <trkpt lat="48.65145" lon="1.90886">
        <ele>190.96</ele>
        <time>2022-04-10T08:59:33Z</time>
      </trkpt>
      <trkpt lat="48.65154" lon="1.90898">
        <ele>190.96</ele>
        <time>2022-04-10T08:59:25Z</time>
      </trkpt>
      <trkpt lat="48.6517" lon="1.90915">
        <ele>190</ele>
        <time>2022-04-10T08:59:11Z</time>
      </trkpt>
      <trkpt lat="48.65175" lon="1.90917">
        <ele>190</ele>
        <time>2022-04-10T08:59:08Z</time>
      </trkpt>
      <trkpt lat="48.65189" lon="1.90936">
        <ele>190</ele>
        <time>2022-04-10T08:58:56Z</time>
      </trkpt>
      <trkpt lat="48.65197" lon="1.90946">
        <ele>190</ele>
        <time>2022-04-10T08:58:49Z</time>
      </trkpt>
      <trkpt lat="48.65212" lon="1.90964">
        <ele>190</ele>
        <time>2022-04-10T08:58:37Z</time>
      </trkpt>
      <trkpt lat="48.65221" lon="1.90972">
        <ele>190</ele>
        <time>2022-04-10T08:58:30Z</time>
      </trkpt>
      <trkpt lat="48.65236" lon="1.90988">
        <ele>190</ele>
        <time>2022-04-10T08:58:16Z</time>
      </trkpt>
      <trkpt lat="48.65249" lon="1.91003">
        <ele>190</ele>
        <time>2022-04-10T08:58:02Z</time>
      </trkpt>
      <trkpt lat="48.65259" lon="1.91019">
        <ele>190</ele>
        <time>2022-04-10T08:57:52Z</time>
      </trkpt>
      <trkpt lat="48.65277" lon="1.91044">
        <ele>190</ele>
        <time>2022-04-10T08:57:36Z</time>
      </trkpt>
      <trkpt lat="48.65293" lon="1.911">
        <ele>190</ele>
        <time>2022-04-10T08:57:15Z</time>
      </trkpt>
      <trkpt lat="48.65289" lon="1.91107">
        <ele>190</ele>
        <time>2022-04-10T08:57:10Z</time>
      </trkpt>
      <trkpt lat="48.65279" lon="1.91129">
        <ele>189.04</ele>
        <time>2022-04-10T08:56:59Z</time>
      </trkpt>
      <trkpt lat="48.65269" lon="1.9116">
        <ele>189.04</ele>
        <time>2022-04-10T08:56:43Z</time>
      </trkpt>
      <trkpt lat="48.6525" lon="1.91192">
        <ele>189.04</ele>
        <time>2022-04-10T08:56:25Z</time>
      </trkpt>
      <trkpt lat="48.65238" lon="1.91232">
        <ele>189.04</ele>
        <time>2022-04-10T08:56:09Z</time>
      </trkpt>
      <trkpt lat="48.65226" lon="1.91274">
        <ele>189.04</ele>
        <time>2022-04-10T08:55:51Z</time>
      </trkpt>
      <trkpt lat="48.65211" lon="1.91304">
        <ele>189.04</ele>
        <time>2022-04-10T08:55:30Z</time>
      </trkpt>
      <trkpt lat="48.65197" lon="1.91339">
        <ele>188.08</ele>
        <time>2022-04-10T08:55:12Z</time>
      </trkpt>
      <trkpt lat="48.6518" lon="1.91363">
        <ele>188.08</ele>
        <time>2022-04-10T08:55:01Z</time>
      </trkpt>
      <trkpt lat="48.65163" lon="1.91398">
        <ele>188.08</ele>
        <time>2022-04-10T08:54:40Z</time>
      </trkpt>
      <trkpt lat="48.65149" lon="1.91431">
        <ele>188.08</ele>
        <time>2022-04-10T08:54:24Z</time>
      </trkpt>
      <trkpt lat="48.65138" lon="1.9145">
        <ele>188.08</ele>
        <time>2022-04-10T08:54:12Z</time>
      </trkpt>
      <trkpt lat="48.65105" lon="1.91492">
        <ele>188.08</ele>
        <time>2022-04-10T08:53:45Z</time>
      </trkpt>
      <trkpt lat="48.65092" lon="1.91541">
        <ele>188.08</ele>
        <time>2022-04-10T08:53:23Z</time>
      </trkpt>
      <trkpt lat="48.65082" lon="1.91571">
        <ele>187.11</ele>
        <time>2022-04-10T08:53:07Z</time>
      </trkpt>
      <trkpt lat="48.65071" lon="1.91594">
        <ele>187.11</ele>
        <time>2022-04-10T08:52:57Z</time>
      </trkpt>
      <trkpt lat="48.6505" lon="1.91638">
        <ele>187.11</ele>
        <time>2022-04-10T08:52:34Z</time>
      </trkpt>
      <trkpt lat="48.65031" lon="1.91673">
        <ele>187.11</ele>
        <time>2022-04-10T08:52:14Z</time>
      </trkpt>
      <trkpt lat="48.65019" lon="1.91711">
        <ele>187.11</ele>
        <time>2022-04-10T08:51:54Z</time>
      </trkpt>
      <trkpt lat="48.64996" lon="1.91744">
        <ele>187.11</ele>
        <time>2022-04-10T08:51:35Z</time>
      </trkpt>
      <trkpt lat="48.64983" lon="1.91766">
        <ele>187.11</ele>
        <time>2022-04-10T08:51:18Z</time>
      </trkpt>
      <trkpt lat="48.64967" lon="1.918">
        <ele>186.15</ele>
        <time>2022-04-10T08:51:01Z</time>
      </trkpt>
      <trkpt lat="48.64964" lon="1.91807">
        <ele>186.15</ele>
        <time>2022-04-10T08:50:57Z</time>
      </trkpt>
      <trkpt lat="48.64957" lon="1.91837">
        <ele>186.15</ele>
        <time>2022-04-10T08:50:43Z</time>
      </trkpt>
      <trkpt lat="48.64943" lon="1.91858">
        <ele>186.15</ele>
        <time>2022-04-10T08:50:26Z</time>
      </trkpt>
      <trkpt lat="48.64927" lon="1.91886">
        <ele>186.15</ele>
        <time>2022-04-10T08:50:09Z</time>
      </trkpt>
      <trkpt lat="48.64912" lon="1.91914">
        <ele>186.15</ele>
        <time>2022-04-10T08:49:53Z</time>
      </trkpt>
      <trkpt lat="48.64895" lon="1.91949">
        <ele>186.15</ele>
        <time>2022-04-10T08:49:34Z</time>
      </trkpt>
      <trkpt lat="48.64882" lon="1.91986">
        <ele>185.19</ele>
        <time>2022-04-10T08:49:15Z</time>
      </trkpt>
      <trkpt lat="48.64878" lon="1.91995">
        <ele>185.19</ele>
        <time>2022-04-10T08:49:11Z</time>
      </trkpt>
      <trkpt lat="48.64876" lon="1.91998">
        <ele>185.19</ele>
        <time>2022-04-10T08:49:09Z</time>
      </trkpt>
      <trkpt lat="48.64871" lon="1.92011">
        <ele>185.19</ele>
        <time>2022-04-10T08:49:03Z</time>
      </trkpt>
      <trkpt lat="48.64862" lon="1.92031">
        <ele>185.19</ele>
        <time>2022-04-10T08:48:53Z</time>
      </trkpt>
      <trkpt lat="48.64849" lon="1.92054">
        <ele>185.19</ele>
        <time>2022-04-10T08:48:36Z</time>
      </trkpt>
      <trkpt lat="48.64839" lon="1.92075">
        <ele>186.15</ele>
        <time>2022-04-10T08:48:18Z</time>
      </trkpt>
      <trkpt lat="48.64826" lon="1.92101">
        <ele>186.15</ele>
        <time>2022-04-10T08:47:59Z</time>
      </trkpt>
      <trkpt lat="48.64807" lon="1.92154">
        <ele>186.15</ele>
        <time>2022-04-10T08:47:35Z</time>
      </trkpt>
      <trkpt lat="48.64788" lon="1.92196">
        <ele>185.19</ele>
        <time>2022-04-10T08:47:13Z</time>
      </trkpt>
      <trkpt lat="48.64768" lon="1.92245">
        <ele>184.23</ele>
        <time>2022-04-10T08:46:48Z</time>
      </trkpt>
      <trkpt lat="48.64745" lon="1.92295">
        <ele>184.23</ele>
        <time>2022-04-10T08:46:20Z</time>
      </trkpt>
      <trkpt lat="48.64721" lon="1.92349">
        <ele>184.23</ele>
        <time>2022-04-10T08:45:55Z</time>
      </trkpt>
      <trkpt lat="48.64704" lon="1.92385">
        <ele>184.23</ele>
        <time>2022-04-10T08:45:35Z</time>
      </trkpt>
      <trkpt lat="48.64699" lon="1.92396">
        <ele>184.23</ele>
        <time>2022-04-10T08:45:27Z</time>
      </trkpt>
      <trkpt lat="48.64691" lon="1.92402">
        <ele>184.23</ele>
        <time>2022-04-10T08:45:20Z</time>
      </trkpt>
      <trkpt lat="48.64695" lon="1.92404">
        <ele>185.19</ele>
        <time>2022-04-10T08:44:45Z</time>
      </trkpt>
      <trkpt lat="48.64696" lon="1.92402">
        <ele>185.19</ele>
        <time>2022-04-10T08:44:24Z</time>
      </trkpt>
      <trkpt lat="48.64697" lon="1.92401">
        <ele>185.19</ele>
        <time>2022-04-10T08:44:00Z</time>
      </trkpt>
      <trkpt lat="48.64694" lon="1.92399">
        <ele>185.19</ele>
        <time>2022-04-10T08:43:36Z</time>
      </trkpt>
      <trkpt lat="48.64687" lon="1.92418">
        <ele>185.19</ele>
        <time>2022-04-10T08:43:20Z</time>
      </trkpt>
      <trkpt lat="48.64666" lon="1.92467">
        <ele>185.19</ele>
        <time>2022-04-10T08:42:56Z</time>
      </trkpt>
      <trkpt lat="48.64642" lon="1.92521">
        <ele>185.19</ele>
        <time>2022-04-10T08:42:35Z</time>
      </trkpt>
      <trkpt lat="48.64617" lon="1.92576">
        <ele>185.19</ele>
        <time>2022-04-10T08:42:15Z</time>
      </trkpt>
      <trkpt lat="48.64607" lon="1.9259">
        <ele>185.19</ele>
        <time>2022-04-10T08:42:09Z</time>
      </trkpt>
      <trkpt lat="48.646" lon="1.92611">
        <ele>185.19</ele>
        <time>2022-04-10T08:42:01Z</time>
      </trkpt>
      <trkpt lat="48.64589" lon="1.92644">
        <ele>185.19</ele>
        <time>2022-04-10T08:41:41Z</time>
      </trkpt>
      <trkpt lat="48.64572" lon="1.92669">
        <ele>185.19</ele>
        <time>2022-04-10T08:41:21Z</time>
      </trkpt>
      <trkpt lat="48.64565" lon="1.92677">
        <ele>185.19</ele>
        <time>2022-04-10T08:41:14Z</time>
      </trkpt>
      <trkpt lat="48.64552" lon="1.92709">
        <ele>184.23</ele>
        <time>2022-04-10T08:40:54Z</time>
      </trkpt>
      <trkpt lat="48.64542" lon="1.92735">
        <ele>182.79</ele>
        <time>2022-04-10T08:40:35Z</time>
      </trkpt>
      <trkpt lat="48.6453" lon="1.9275">
        <ele>180.87</ele>
        <time>2022-04-10T08:40:17Z</time>
      </trkpt>
      <trkpt lat="48.64526" lon="1.92765">
        <ele>179.9</ele>
        <time>2022-04-10T08:40:06Z</time>
      </trkpt>
      <trkpt lat="48.6452" lon="1.92779">
        <ele>177.98</ele>
        <time>2022-04-10T08:39:56Z</time>
      </trkpt>
      <trkpt lat="48.64508" lon="1.92798">
        <ele>175.1</ele>
        <time>2022-04-10T08:39:41Z</time>
      </trkpt>
      <trkpt lat="48.64498" lon="1.92835">
        <ele>172.21</ele>
        <time>2022-04-10T08:39:22Z</time>
      </trkpt>
      <trkpt lat="48.64486" lon="1.9286">
        <ele>168.85</ele>
        <time>2022-04-10T08:39:04Z</time>
      </trkpt>
      <trkpt lat="48.64469" lon="1.92896">
        <ele>165</ele>
        <time>2022-04-10T08:38:43Z</time>
      </trkpt>
      <trkpt lat="48.64452" lon="1.92939">
        <ele>164.04</ele>
        <time>2022-04-10T08:38:19Z</time>
      </trkpt>
      <trkpt lat="48.64442" lon="1.92965">
        <ele>163.08</ele>
        <time>2022-04-10T08:38:04Z</time>
      </trkpt>
      <trkpt lat="48.64435" lon="1.92976">
        <ele>163.08</ele>
        <time>2022-04-10T08:37:54Z</time>
      </trkpt>
      <trkpt lat="48.64432" lon="1.92977">
        <ele>162.12</ele>
        <time>2022-04-10T08:37:52Z</time>
      </trkpt>
      <trkpt lat="48.64424" lon="1.92998">
        <ele>162.12</ele>
        <time>2022-04-10T08:37:30Z</time>
      </trkpt>
      <trkpt lat="48.64419" lon="1.93016">
        <ele>162.12</ele>
        <time>2022-04-10T08:37:17Z</time>
      </trkpt>
      <trkpt lat="48.64415" lon="1.93029">
        <ele>161.16</ele>
        <time>2022-04-10T08:37:09Z</time>
      </trkpt>
      <trkpt lat="48.64407" lon="1.93069">
        <ele>160.2</ele>
        <time>2022-04-10T08:36:46Z</time>
      </trkpt>
      <trkpt lat="48.64407" lon="1.93088">
        <ele>160.2</ele>
        <time>2022-04-10T08:36:35Z</time>
      </trkpt>
      <trkpt lat="48.64408" lon="1.93096">
        <ele>160.2</ele>
        <time>2022-04-10T08:36:32Z</time>
      </trkpt>
      <trkpt lat="48.64404" lon="1.93113">
        <ele>160.2</ele>
        <time>2022-04-10T08:36:22Z</time>
      </trkpt>
      <trkpt lat="48.644" lon="1.93134">
        <ele>159.24</ele>
        <time>2022-04-10T08:35:59Z</time>
      </trkpt>
      <trkpt lat="48.64404" lon="1.93144">
        <ele>159.24</ele>
        <time>2022-04-10T08:35:37Z</time>
      </trkpt>
      <trkpt lat="48.64409" lon="1.93155">
        <ele>159.24</ele>
        <time>2022-04-10T08:35:26Z</time>
      </trkpt>
      <trkpt lat="48.6441" lon="1.9316">
        <ele>159.24</ele>
        <time>2022-04-10T08:35:22Z</time>
      </trkpt>
      <trkpt lat="48.64401" lon="1.93205">
        <ele>159.24</ele>
        <time>2022-04-10T08:35:04Z</time>
      </trkpt>
      <trkpt lat="48.64401" lon="1.93211">
        <ele>159.24</ele>
        <time>2022-04-10T08:35:00Z</time>
      </trkpt>
      <trkpt lat="48.644" lon="1.93255">
        <ele>157.79</ele>
        <time>2022-04-10T08:34:36Z</time>
      </trkpt>
      <trkpt lat="48.64401" lon="1.93262">
        <ele>157.79</ele>
        <time>2022-04-10T08:34:30Z</time>
      </trkpt>
      <trkpt lat="48.644" lon="1.93265">
        <ele>156.83</ele>
        <time>2022-04-10T08:34:28Z</time>
      </trkpt>
      <trkpt lat="48.64402" lon="1.93294">
        <ele>156.83</ele>
        <time>2022-04-10T08:34:11Z</time>
      </trkpt>
      <trkpt lat="48.64399" lon="1.93318">
        <ele>155.87</ele>
        <time>2022-04-10T08:33:54Z</time>
      </trkpt>
      <trkpt lat="48.64395" lon="1.93333">
        <ele>154.91</ele>
        <time>2022-04-10T08:33:38Z</time>
      </trkpt>
      <trkpt lat="48.64395" lon="1.93353">
        <ele>155.87</ele>
        <time>2022-04-10T08:33:26Z</time>
      </trkpt>
      <trkpt lat="48.64388" lon="1.934">
        <ele>154.91</ele>
        <time>2022-04-10T08:33:04Z</time>
      </trkpt>
      <trkpt lat="48.64387" lon="1.93433">
        <ele>153.95</ele>
        <time>2022-04-10T08:32:39Z</time>
      </trkpt>
      <trkpt lat="48.64386" lon="1.93431">
        <ele>152.99</ele>
        <time>2022-04-10T08:32:10Z</time>
      </trkpt>
      <trkpt lat="48.64385" lon="1.93424">
        <ele>152.99</ele>
        <time>2022-04-10T08:31:57Z</time>
      </trkpt>
      <trkpt lat="48.6439" lon="1.93427">
        <ele>152.03</ele>
        <time>2022-04-10T08:31:43Z</time>
      </trkpt>
      <trkpt lat="48.64399" lon="1.93439">
        <ele>152.03</ele>
        <time>2022-04-10T08:31:27Z</time>
      </trkpt>
      <trkpt lat="48.64405" lon="1.93449">
        <ele>152.03</ele>
        <time>2022-04-10T08:31:19Z</time>
      </trkpt>
      <trkpt lat="48.64413" lon="1.93461">
        <ele>151.06</ele>
        <time>2022-04-10T08:31:11Z</time>
      </trkpt>
      <trkpt lat="48.6443" lon="1.9348">
        <ele>151.06</ele>
        <time>2022-04-10T08:30:55Z</time>
      </trkpt>
      <trkpt lat="48.64442" lon="1.93493">
        <ele>151.06</ele>
        <time>2022-04-10T08:30:46Z</time>
      </trkpt>
      <trkpt lat="48.64458" lon="1.9351">
        <ele>153.95</ele>
        <time>2022-04-10T08:30:26Z</time>
      </trkpt>
      <trkpt lat="48.6446" lon="1.93514">
        <ele>154.91</ele>
        <time>2022-04-10T08:30:22Z</time>
      </trkpt>
      <trkpt lat="48.64469" lon="1.93527">
        <ele>157.79</ele>
        <time>2022-04-10T08:30:08Z</time>
      </trkpt>
      <trkpt lat="48.64481" lon="1.93542">
        <ele>162.12</ele>
        <time>2022-04-10T08:29:52Z</time>
      </trkpt>
      <trkpt lat="48.64495" lon="1.93554">
        <ele>165</ele>
        <time>2022-04-10T08:29:38Z</time>
      </trkpt>
      <trkpt lat="48.64506" lon="1.93572">
        <ele>167.89</ele>
        <time>2022-04-10T08:29:18Z</time>
      </trkpt>
      <trkpt lat="48.64521" lon="1.93594">
        <ele>168.85</ele>
        <time>2022-04-10T08:28:59Z</time>
      </trkpt>
      <trkpt lat="48.64539" lon="1.93613">
        <ele>173.17</ele>
        <time>2022-04-10T08:28:43Z</time>
      </trkpt>
      <trkpt lat="48.64548" lon="1.93618">
        <ele>174.14</ele>
        <time>2022-04-10T08:28:33Z</time>
      </trkpt>
      <trkpt lat="48.6456" lon="1.93636">
        <ele>175.1</ele>
        <time>2022-04-10T08:28:17Z</time>
      </trkpt>
      <trkpt lat="48.6457" lon="1.93645">
        <ele>175.1</ele>
        <time>2022-04-10T08:28:06Z</time>
      </trkpt>
      <trkpt lat="48.64575" lon="1.93644">
        <ele>175.1</ele>
        <time>2022-04-10T08:27:57Z</time>
      </trkpt>
      <trkpt lat="48.64577" lon="1.93644">
        <ele>175.1</ele>
        <time>2022-04-10T08:27:55Z</time>
      </trkpt>
      <trkpt lat="48.64577" lon="1.93641">
        <ele>175.1</ele>
        <time>2022-04-10T08:27:52Z</time>
      </trkpt>
      <trkpt lat="48.64578" lon="1.9364">
        <ele>175.1</ele>
        <time>2022-04-10T08:27:51Z</time>
      </trkpt>
      <trkpt lat="48.64583" lon="1.93629">
        <ele>175.1</ele>
        <time>2022-04-10T08:27:36Z</time>
      </trkpt>
      <trkpt lat="48.64595" lon="1.93596">
        <ele>174.14</ele>
        <time>2022-04-10T08:27:20Z</time>
      </trkpt>
      <trkpt lat="48.64595" lon="1.93594">
        <ele>174.14</ele>
        <time>2022-04-10T08:27:19Z</time>
      </trkpt>
      <trkpt lat="48.64608" lon="1.93566">
        <ele>173.17</ele>
        <time>2022-04-10T08:27:02Z</time>
      </trkpt>
      <trkpt lat="48.64613" lon="1.93556">
        <ele>173.17</ele>
        <time>2022-04-10T08:26:57Z</time>
      </trkpt>
      <trkpt lat="48.64623" lon="1.93534">
        <ele>173.17</ele>
        <time>2022-04-10T08:26:46Z</time>
      </trkpt>
      <trkpt lat="48.64631" lon="1.9351">
        <ele>174.14</ele>
        <time>2022-04-10T08:26:33Z</time>
      </trkpt>
      <trkpt lat="48.64639" lon="1.93485">
        <ele>174.14</ele>
        <time>2022-04-10T08:26:19Z</time>
      </trkpt>
      <trkpt lat="48.64652" lon="1.93457">
        <ele>174.14</ele>
        <time>2022-04-10T08:26:02Z</time>
      </trkpt>
      <trkpt lat="48.64655" lon="1.93451">
        <ele>173.17</ele>
        <time>2022-04-10T08:25:58Z</time>
      </trkpt>
      <trkpt lat="48.64662" lon="1.93438">
        <ele>173.17</ele>
        <time>2022-04-10T08:25:51Z</time>
      </trkpt>
      <trkpt lat="48.64666" lon="1.93429">
        <ele>173.17</ele>
        <time>2022-04-10T08:25:45Z</time>
      </trkpt>
      <trkpt lat="48.64669" lon="1.93422">
        <ele>173.17</ele>
        <time>2022-04-10T08:25:40Z</time>
      </trkpt>
      <trkpt lat="48.64688" lon="1.93383">
        <ele>173.17</ele>
        <time>2022-04-10T08:25:17Z</time>
      </trkpt>
      <trkpt lat="48.64707" lon="1.93349">
        <ele>173.17</ele>
        <time>2022-04-10T08:24:58Z</time>
      </trkpt>
      <trkpt lat="48.64722" lon="1.93319">
        <ele>173.17</ele>
        <time>2022-04-10T08:24:40Z</time>
      </trkpt>
      <trkpt lat="48.64726" lon="1.9331">
        <ele>173.17</ele>
        <time>2022-04-10T08:24:35Z</time>
      </trkpt>
      <trkpt lat="48.64739" lon="1.93278">
        <ele>172.21</ele>
        <time>2022-04-10T08:24:19Z</time>
      </trkpt>
      <trkpt lat="48.64748" lon="1.93261">
        <ele>172.21</ele>
        <time>2022-04-10T08:24:08Z</time>
      </trkpt>
      <trkpt lat="48.64751" lon="1.93255">
        <ele>172.21</ele>
        <time>2022-04-10T08:24:04Z</time>
      </trkpt>
      <trkpt lat="48.64759" lon="1.93236">
        <ele>172.21</ele>
        <time>2022-04-10T08:23:54Z</time>
      </trkpt>
      <trkpt lat="48.64761" lon="1.93223">
        <ele>172.21</ele>
        <time>2022-04-10T08:23:48Z</time>
      </trkpt>
      <trkpt lat="48.6477" lon="1.93198">
        <ele>172.21</ele>
        <time>2022-04-10T08:23:35Z</time>
      </trkpt>
      <trkpt lat="48.64785" lon="1.93167">
        <ele>172.21</ele>
        <time>2022-04-10T08:23:17Z</time>
      </trkpt>
      <trkpt lat="48.64791" lon="1.93157">
        <ele>172.21</ele>
        <time>2022-04-10T08:23:11Z</time>
      </trkpt>
      <trkpt lat="48.64801" lon="1.9313">
        <ele>172.21</ele>
        <time>2022-04-10T08:22:57Z</time>
      </trkpt>
      <trkpt lat="48.64808" lon="1.93114">
        <ele>172.21</ele>
        <time>2022-04-10T08:22:48Z</time>
      </trkpt>
      <trkpt lat="48.64821" lon="1.93083">
        <ele>170.77</ele>
        <time>2022-04-10T08:22:33Z</time>
      </trkpt>
      <trkpt lat="48.64828" lon="1.93062">
        <ele>170.77</ele>
        <time>2022-04-10T08:22:21Z</time>
      </trkpt>
      <trkpt lat="48.6483" lon="1.93058">
        <ele>170.77</ele>
        <time>2022-04-10T08:22:19Z</time>
      </trkpt>
      <trkpt lat="48.6484" lon="1.93036">
        <ele>170.77</ele>
        <time>2022-04-10T08:22:05Z</time>
      </trkpt>
      <trkpt lat="48.64856" lon="1.93002">
        <ele>170.77</ele>
        <time>2022-04-10T08:21:46Z</time>
      </trkpt>
      <trkpt lat="48.64874" lon="1.92957">
        <ele>172.21</ele>
        <time>2022-04-10T08:21:23Z</time>
      </trkpt>
      <trkpt lat="48.64891" lon="1.92919">
        <ele>172.21</ele>
        <time>2022-04-10T08:21:03Z</time>
      </trkpt>
      <trkpt lat="48.64903" lon="1.92891">
        <ele>172.21</ele>
        <time>2022-04-10T08:20:44Z</time>
      </trkpt>
      <trkpt lat="48.64907" lon="1.92886">
        <ele>172.21</ele>
        <time>2022-04-10T08:20:39Z</time>
      </trkpt>
      <trkpt lat="48.64908" lon="1.92883">
        <ele>172.21</ele>
        <time>2022-04-10T08:20:34Z</time>
      </trkpt>
      <trkpt lat="48.64909" lon="1.92881">
        <ele>170.77</ele>
        <time>2022-04-10T08:20:33Z</time>
      </trkpt>
      <trkpt lat="48.64909" lon="1.9288">
        <ele>170.77</ele>
        <time>2022-04-10T08:20:32Z</time>
      </trkpt>
      <trkpt lat="48.64909" lon="1.92877">
        <ele>172.21</ele>
        <time>2022-04-10T08:19:51Z</time>
      </trkpt>
      <trkpt lat="48.64908" lon="1.92882">
        <ele>172.21</ele>
        <time>2022-04-10T08:19:25Z</time>
      </trkpt>
      <trkpt lat="48.64906" lon="1.92889">
        <ele>170.77</ele>
        <time>2022-04-10T08:19:06Z</time>
      </trkpt>
      <trkpt lat="48.64907" lon="1.92887">
        <ele>172.21</ele>
        <time>2022-04-10T08:17:55Z</time>
      </trkpt>
      <trkpt lat="48.64906" lon="1.92887">
        <ele>172.21</ele>
        <time>2022-04-10T08:17:32Z</time>
      </trkpt>
      <trkpt lat="48.64907" lon="1.92886">
        <ele>172.21</ele>
        <time>2022-04-10T08:17:16Z</time>
      </trkpt>
      <trkpt lat="48.64905" lon="1.92887">
        <ele>172.21</ele>
        <time>2022-04-10T08:17:03Z</time>
      </trkpt>
      <trkpt lat="48.64903" lon="1.92892">
        <ele>172.21</ele>
        <time>2022-04-10T08:16:59Z</time>
      </trkpt>
      <trkpt lat="48.64892" lon="1.92888">
        <ele>172.21</ele>
        <time>2022-04-10T08:16:44Z</time>
      </trkpt>
      <trkpt lat="48.64875" lon="1.92866">
        <ele>170.77</ele>
        <time>2022-04-10T08:16:27Z</time>
      </trkpt>
      <trkpt lat="48.6485" lon="1.92838">
        <ele>169.81</ele>
        <time>2022-04-10T08:16:06Z</time>
      </trkpt>
      <trkpt lat="48.6483" lon="1.92814">
        <ele>168.85</ele>
        <time>2022-04-10T08:15:49Z</time>
      </trkpt>
      <trkpt lat="48.64813" lon="1.92796">
        <ele>167.89</ele>
        <time>2022-04-10T08:15:34Z</time>
      </trkpt>
      <trkpt lat="48.64796" lon="1.92776">
        <ele>165.96</ele>
        <time>2022-04-10T08:15:19Z</time>
      </trkpt>
      <trkpt lat="48.64778" lon="1.92757">
        <ele>165</ele>
        <time>2022-04-10T08:15:03Z</time>
      </trkpt>
      <trkpt lat="48.6476" lon="1.92741">
        <ele>165</ele>
        <time>2022-04-10T08:14:49Z</time>
      </trkpt>
      <trkpt lat="48.64759" lon="1.92739">
        <ele>165</ele>
        <time>2022-04-10T08:14:48Z</time>
      </trkpt>
      <trkpt lat="48.64757" lon="1.92737">
        <ele>165</ele>
        <time>2022-04-10T08:14:47Z</time>
      </trkpt>
      <trkpt lat="48.64755" lon="1.92735">
        <ele>165</ele>
        <time>2022-04-10T08:14:46Z</time>
      </trkpt>
      <trkpt lat="48.64754" lon="1.92733">
        <ele>165</ele>
        <time>2022-04-10T08:14:45Z</time>
      </trkpt>
      <trkpt lat="48.64753" lon="1.92732">
        <ele>165</ele>
        <time>2022-04-10T08:14:44Z</time>
      </trkpt>
      <trkpt lat="48.64751" lon="1.92728">
        <ele>165</ele>
        <time>2022-04-10T08:14:41Z</time>
      </trkpt>
      <trkpt lat="48.6475" lon="1.92727">
        <ele>165</ele>
        <time>2022-04-10T08:14:40Z</time>
      </trkpt>
      <trkpt lat="48.64749" lon="1.92725">
        <ele>165</ele>
        <time>2022-04-10T08:14:39Z</time>
      </trkpt>
      <trkpt lat="48.6473" lon="1.92703">
        <ele>165</ele>
        <time>2022-04-10T08:14:22Z</time>
      </trkpt>
      <trkpt lat="48.64722" lon="1.92692">
        <ele>165</ele>
        <time>2022-04-10T08:14:16Z</time>
      </trkpt>
      <trkpt lat="48.64711" lon="1.92679">
        <ele>165</ele>
        <time>2022-04-10T08:14:06Z</time>
      </trkpt>
      <trkpt lat="48.6471" lon="1.92677">
        <ele>165</ele>
        <time>2022-04-10T08:14:05Z</time>
      </trkpt>
      <trkpt lat="48.64709" lon="1.92676">
        <ele>165</ele>
        <time>2022-04-10T08:14:04Z</time>
      </trkpt>
      <trkpt lat="48.64708" lon="1.92675">
        <ele>165</ele>
        <time>2022-04-10T08:14:03Z</time>
      </trkpt>
      <trkpt lat="48.64707" lon="1.92674">
        <ele>165</ele>
        <time>2022-04-10T08:14:02Z</time>
      </trkpt>
      <trkpt lat="48.64706" lon="1.92672">
        <ele>165</ele>
        <time>2022-04-10T08:14:01Z</time>
      </trkpt>
      <trkpt lat="48.6469" lon="1.92657">
        <ele>165.96</ele>
        <time>2022-04-10T08:13:48Z</time>
      </trkpt>
      <trkpt lat="48.64678" lon="1.92647">
        <ele>166.93</ele>
        <time>2022-04-10T08:13:36Z</time>
      </trkpt>
      <trkpt lat="48.64661" lon="1.9263">
        <ele>167.89</ele>
        <time>2022-04-10T08:13:20Z</time>
      </trkpt>
      <trkpt lat="48.64639" lon="1.92608">
        <ele>167.89</ele>
        <time>2022-04-10T08:13:02Z</time>
      </trkpt>
      <trkpt lat="48.64638" lon="1.92607">
        <ele>167.89</ele>
        <time>2022-04-10T08:13:01Z</time>
      </trkpt>
      <trkpt lat="48.64637" lon="1.92606">
        <ele>167.89</ele>
        <time>2022-04-10T08:13:00Z</time>
      </trkpt>
      <trkpt lat="48.64636" lon="1.92604">
        <ele>167.89</ele>
        <time>2022-04-10T08:12:59Z</time>
      </trkpt>
      <trkpt lat="48.64634" lon="1.92603">
        <ele>167.89</ele>
        <time>2022-04-10T08:12:58Z</time>
      </trkpt>
      <trkpt lat="48.64634" lon="1.92602">
        <ele>167.89</ele>
        <time>2022-04-10T08:12:57Z</time>
      </trkpt>
      <trkpt lat="48.64621" lon="1.92591">
        <ele>168.85</ele>
        <time>2022-04-10T08:12:44Z</time>
      </trkpt>
      <trkpt lat="48.6462" lon="1.92589">
        <ele>168.85</ele>
        <time>2022-04-10T08:12:43Z</time>
      </trkpt>
      <trkpt lat="48.64619" lon="1.92588">
        <ele>168.85</ele>
        <time>2022-04-10T08:12:42Z</time>
      </trkpt>
      <trkpt lat="48.64618" lon="1.92586">
        <ele>168.85</ele>
        <time>2022-04-10T08:12:41Z</time>
      </trkpt>
      <trkpt lat="48.64618" lon="1.92585">
        <ele>168.85</ele>
        <time>2022-04-10T08:12:40Z</time>
      </trkpt>
      <trkpt lat="48.64618" lon="1.92583">
        <ele>168.85</ele>
        <time>2022-04-10T08:12:34Z</time>
      </trkpt>
      <trkpt lat="48.64619" lon="1.92576">
        <ele>168.85</ele>
        <time>2022-04-10T08:12:19Z</time>
      </trkpt>
      <trkpt lat="48.64634" lon="1.92544">
        <ele>168.85</ele>
        <time>2022-04-10T08:11:59Z</time>
      </trkpt>
      <trkpt lat="48.64655" lon="1.92497">
        <ele>168.85</ele>
        <time>2022-04-10T08:11:33Z</time>
      </trkpt>
      <trkpt lat="48.64676" lon="1.9245">
        <ele>169.81</ele>
        <time>2022-04-10T08:11:08Z</time>
      </trkpt>
      <trkpt lat="48.64677" lon="1.92448">
        <ele>169.81</ele>
        <time>2022-04-10T08:11:07Z</time>
      </trkpt>
      <trkpt lat="48.64678" lon="1.92446">
        <ele>169.81</ele>
        <time>2022-04-10T08:11:06Z</time>
      </trkpt>
      <trkpt lat="48.64692" lon="1.92412">
        <ele>169.81</ele>
        <time>2022-04-10T08:10:49Z</time>
      </trkpt>
      <trkpt lat="48.64708" lon="1.9238">
        <ele>169.81</ele>
        <time>2022-04-10T08:10:31Z</time>
      </trkpt>
      <trkpt lat="48.64722" lon="1.92346">
        <ele>169.81</ele>
        <time>2022-04-10T08:10:12Z</time>
      </trkpt>
      <trkpt lat="48.6474" lon="1.92304">
        <ele>170.77</ele>
        <time>2022-04-10T08:09:49Z</time>
      </trkpt>
      <trkpt lat="48.64759" lon="1.9226">
        <ele>172.21</ele>
        <time>2022-04-10T08:09:26Z</time>
      </trkpt>
      <trkpt lat="48.64779" lon="1.92215">
        <ele>172.21</ele>
        <time>2022-04-10T08:09:02Z</time>
      </trkpt>
      <trkpt lat="48.64801" lon="1.92166">
        <ele>173.17</ele>
        <time>2022-04-10T08:08:38Z</time>
      </trkpt>
      <trkpt lat="48.64818" lon="1.92127">
        <ele>173.17</ele>
        <time>2022-04-10T08:08:18Z</time>
      </trkpt>
      <trkpt lat="48.64829" lon="1.92102">
        <ele>173.17</ele>
        <time>2022-04-10T08:08:06Z</time>
      </trkpt>
      <trkpt lat="48.64844" lon="1.92072">
        <ele>173.17</ele>
        <time>2022-04-10T08:07:51Z</time>
      </trkpt>
      <trkpt lat="48.64855" lon="1.92048">
        <ele>173.17</ele>
        <time>2022-04-10T08:07:38Z</time>
      </trkpt>
      <trkpt lat="48.64869" lon="1.92019">
        <ele>173.17</ele>
        <time>2022-04-10T08:07:23Z</time>
      </trkpt>
      <trkpt lat="48.64885" lon="1.91987">
        <ele>173.17</ele>
        <time>2022-04-10T08:07:08Z</time>
      </trkpt>
      <trkpt lat="48.64895" lon="1.91959">
        <ele>173.17</ele>
        <time>2022-04-10T08:06:54Z</time>
      </trkpt>
      <trkpt lat="48.64907" lon="1.91929">
        <ele>173.17</ele>
        <time>2022-04-10T08:06:38Z</time>
      </trkpt>
      <trkpt lat="48.64908" lon="1.91927">
        <ele>173.17</ele>
        <time>2022-04-10T08:06:37Z</time>
      </trkpt>
      <trkpt lat="48.64909" lon="1.91926">
        <ele>173.17</ele>
        <time>2022-04-10T08:06:36Z</time>
      </trkpt>
      <trkpt lat="48.6491" lon="1.91924">
        <ele>173.17</ele>
        <time>2022-04-10T08:06:35Z</time>
      </trkpt>
      <trkpt lat="48.64911" lon="1.91921">
        <ele>173.17</ele>
        <time>2022-04-10T08:06:34Z</time>
      </trkpt>
      <trkpt lat="48.64914" lon="1.91916">
        <ele>173.17</ele>
        <time>2022-04-10T08:06:31Z</time>
      </trkpt>
      <trkpt lat="48.64915" lon="1.91914">
        <ele>173.17</ele>
        <time>2022-04-10T08:06:30Z</time>
      </trkpt>
      <trkpt lat="48.64916" lon="1.91913">
        <ele>173.17</ele>
        <time>2022-04-10T08:06:29Z</time>
      </trkpt>
      <trkpt lat="48.64917" lon="1.91911">
        <ele>173.17</ele>
        <time>2022-04-10T08:06:28Z</time>
      </trkpt>
      <trkpt lat="48.64918" lon="1.91909">
        <ele>173.17</ele>
        <time>2022-04-10T08:06:27Z</time>
      </trkpt>
      <trkpt lat="48.64919" lon="1.91907">
        <ele>173.17</ele>
        <time>2022-04-10T08:06:26Z</time>
      </trkpt>
      <trkpt lat="48.64919" lon="1.91905">
        <ele>173.17</ele>
        <time>2022-04-10T08:06:25Z</time>
      </trkpt>
      <trkpt lat="48.6492" lon="1.91903">
        <ele>173.17</ele>
        <time>2022-04-10T08:06:24Z</time>
      </trkpt>
      <trkpt lat="48.6492" lon="1.91901">
        <ele>173.17</ele>
        <time>2022-04-10T08:06:23Z</time>
      </trkpt>
      <trkpt lat="48.64921" lon="1.91899">
        <ele>173.17</ele>
        <time>2022-04-10T08:06:22Z</time>
      </trkpt>
      <trkpt lat="48.64922" lon="1.91897">
        <ele>173.17</ele>
        <time>2022-04-10T08:06:21Z</time>
      </trkpt>
      <trkpt lat="48.64923" lon="1.91895">
        <ele>173.17</ele>
        <time>2022-04-10T08:06:20Z</time>
      </trkpt>
      <trkpt lat="48.64931" lon="1.91878">
        <ele>173.17</ele>
        <time>2022-04-10T08:06:10Z</time>
      </trkpt>
      <trkpt lat="48.64946" lon="1.91851">
        <ele>173.17</ele>
        <time>2022-04-10T08:05:55Z</time>
      </trkpt>
      <trkpt lat="48.64959" lon="1.91816">
        <ele>173.17</ele>
        <time>2022-04-10T08:05:39Z</time>
      </trkpt>
      <trkpt lat="48.64964" lon="1.91801">
        <ele>173.17</ele>
        <time>2022-04-10T08:05:30Z</time>
      </trkpt>
      <trkpt lat="48.64976" lon="1.91772">
        <ele>173.17</ele>
        <time>2022-04-10T08:05:16Z</time>
      </trkpt>
      <trkpt lat="48.64989" lon="1.91745">
        <ele>173.17</ele>
        <time>2022-04-10T08:05:02Z</time>
      </trkpt>
      <trkpt lat="48.64999" lon="1.91721">
        <ele>173.17</ele>
        <time>2022-04-10T08:04:50Z</time>
      </trkpt>
      <trkpt lat="48.65" lon="1.91719">
        <ele>173.17</ele>
        <time>2022-04-10T08:04:49Z</time>
      </trkpt>
      <trkpt lat="48.65002" lon="1.91718">
        <ele>173.17</ele>
        <time>2022-04-10T08:04:48Z</time>
      </trkpt>
      <trkpt lat="48.65011" lon="1.91702">
        <ele>173.17</ele>
        <time>2022-04-10T08:04:39Z</time>
      </trkpt>
      <trkpt lat="48.65011" lon="1.917">
        <ele>173.17</ele>
        <time>2022-04-10T08:04:38Z</time>
      </trkpt>
      <trkpt lat="48.65012" lon="1.91698">
        <ele>173.17</ele>
        <time>2022-04-10T08:04:37Z</time>
      </trkpt>
      <trkpt lat="48.65013" lon="1.91696">
        <ele>173.17</ele>
        <time>2022-04-10T08:04:36Z</time>
      </trkpt>
      <trkpt lat="48.65016" lon="1.91686">
        <ele>173.17</ele>
        <time>2022-04-10T08:04:31Z</time>
      </trkpt>
      <trkpt lat="48.65028" lon="1.91661">
        <ele>173.17</ele>
        <time>2022-04-10T08:04:18Z</time>
      </trkpt>
      <trkpt lat="48.6503" lon="1.91655">
        <ele>173.17</ele>
        <time>2022-04-10T08:04:15Z</time>
      </trkpt>
      <trkpt lat="48.6503" lon="1.91654">
        <ele>173.17</ele>
        <time>2022-04-10T08:04:14Z</time>
      </trkpt>
      <trkpt lat="48.65036" lon="1.91639">
        <ele>173.17</ele>
        <time>2022-04-10T08:04:07Z</time>
      </trkpt>
      <trkpt lat="48.65048" lon="1.9161">
        <ele>172.21</ele>
        <time>2022-04-10T08:03:52Z</time>
      </trkpt>
      <trkpt lat="48.6506" lon="1.91588">
        <ele>172.21</ele>
        <time>2022-04-10T08:03:40Z</time>
      </trkpt>
      <trkpt lat="48.65061" lon="1.91586">
        <ele>172.21</ele>
        <time>2022-04-10T08:03:39Z</time>
      </trkpt>
      <trkpt lat="48.65061" lon="1.91584">
        <ele>172.21</ele>
        <time>2022-04-10T08:03:38Z</time>
      </trkpt>
      <trkpt lat="48.65062" lon="1.91582">
        <ele>172.21</ele>
        <time>2022-04-10T08:03:37Z</time>
      </trkpt>
      <trkpt lat="48.65063" lon="1.9158">
        <ele>172.21</ele>
        <time>2022-04-10T08:03:36Z</time>
      </trkpt>
      <trkpt lat="48.65064" lon="1.91578">
        <ele>172.21</ele>
        <time>2022-04-10T08:03:35Z</time>
      </trkpt>
      <trkpt lat="48.65064" lon="1.91576">
        <ele>172.21</ele>
        <time>2022-04-10T08:03:34Z</time>
      </trkpt>
      <trkpt lat="48.65072" lon="1.91558">
        <ele>172.21</ele>
        <time>2022-04-10T08:03:24Z</time>
      </trkpt>
      <trkpt lat="48.65082" lon="1.91532">
        <ele>172.21</ele>
        <time>2022-04-10T08:03:11Z</time>
      </trkpt>
      <trkpt lat="48.65082" lon="1.9153">
        <ele>172.21</ele>
        <time>2022-04-10T08:03:10Z</time>
      </trkpt>
      <trkpt lat="48.65083" lon="1.91528">
        <ele>172.21</ele>
        <time>2022-04-10T08:03:09Z</time>
      </trkpt>
      <trkpt lat="48.65084" lon="1.91526">
        <ele>172.21</ele>
        <time>2022-04-10T08:03:08Z</time>
      </trkpt>
      <trkpt lat="48.65084" lon="1.91524">
        <ele>172.21</ele>
        <time>2022-04-10T08:03:07Z</time>
      </trkpt>
      <trkpt lat="48.65085" lon="1.91522">
        <ele>172.21</ele>
        <time>2022-04-10T08:03:06Z</time>
      </trkpt>
      <trkpt lat="48.65086" lon="1.9152">
        <ele>172.21</ele>
        <time>2022-04-10T08:03:05Z</time>
      </trkpt>
      <trkpt lat="48.65087" lon="1.91518">
        <ele>172.21</ele>
        <time>2022-04-10T08:03:04Z</time>
      </trkpt>
      <trkpt lat="48.65096" lon="1.91494">
        <ele>172.21</ele>
        <time>2022-04-10T08:02:53Z</time>
      </trkpt>
      <trkpt lat="48.65096" lon="1.91493">
        <ele>172.21</ele>
        <time>2022-04-10T08:02:52Z</time>
      </trkpt>
      <trkpt lat="48.65103" lon="1.91477">
        <ele>172.21</ele>
        <time>2022-04-10T08:02:43Z</time>
      </trkpt>
      <trkpt lat="48.65116" lon="1.91449">
        <ele>172.21</ele>
        <time>2022-04-10T08:02:28Z</time>
      </trkpt>
      <trkpt lat="48.65127" lon="1.91424">
        <ele>172.21</ele>
        <time>2022-04-10T08:02:14Z</time>
      </trkpt>
      <trkpt lat="48.65128" lon="1.91422">
        <ele>172.21</ele>
        <time>2022-04-10T08:02:13Z</time>
      </trkpt>
      <trkpt lat="48.65129" lon="1.91421">
        <ele>172.21</ele>
        <time>2022-04-10T08:02:12Z</time>
      </trkpt>
      <trkpt lat="48.65133" lon="1.91412">
        <ele>172.21</ele>
        <time>2022-04-10T08:02:08Z</time>
      </trkpt>
      <trkpt lat="48.65147" lon="1.91379">
        <ele>172.21</ele>
        <time>2022-04-10T08:01:51Z</time>
      </trkpt>
      <trkpt lat="48.65161" lon="1.91354">
        <ele>172.21</ele>
        <time>2022-04-10T08:01:38Z</time>
      </trkpt>
      <trkpt lat="48.65174" lon="1.91318">
        <ele>172.21</ele>
        <time>2022-04-10T08:01:19Z</time>
      </trkpt>
      <trkpt lat="48.65187" lon="1.91291">
        <ele>170.77</ele>
        <time>2022-04-10T08:01:04Z</time>
      </trkpt>
      <trkpt lat="48.65203" lon="1.91257">
        <ele>170.77</ele>
        <time>2022-04-10T08:00:46Z</time>
      </trkpt>
      <trkpt lat="48.65216" lon="1.91227">
        <ele>170.77</ele>
        <time>2022-04-10T08:00:32Z</time>
      </trkpt>
      <trkpt lat="48.65217" lon="1.91225">
        <ele>170.77</ele>
        <time>2022-04-10T08:00:31Z</time>
      </trkpt>
      <trkpt lat="48.65218" lon="1.91223">
        <ele>170.77</ele>
        <time>2022-04-10T08:00:30Z</time>
      </trkpt>
      <trkpt lat="48.65219" lon="1.91221">
        <ele>170.77</ele>
        <time>2022-04-10T08:00:29Z</time>
      </trkpt>
      <trkpt lat="48.6522" lon="1.91219">
        <ele>170.77</ele>
        <time>2022-04-10T08:00:28Z</time>
      </trkpt>
      <trkpt lat="48.65222" lon="1.91216">
        <ele>170.77</ele>
        <time>2022-04-10T08:00:26Z</time>
      </trkpt>
      <trkpt lat="48.6523" lon="1.91193">
        <ele>170.77</ele>
        <time>2022-04-10T08:00:13Z</time>
      </trkpt>
      <trkpt lat="48.65245" lon="1.91155">
        <ele>170.77</ele>
        <time>2022-04-10T07:59:54Z</time>
      </trkpt>
      <trkpt lat="48.65256" lon="1.91128">
        <ele>170.77</ele>
        <time>2022-04-10T07:59:39Z</time>
      </trkpt>
      <trkpt lat="48.65257" lon="1.91126">
        <ele>170.77</ele>
        <time>2022-04-10T07:59:38Z</time>
      </trkpt>
      <trkpt lat="48.65258" lon="1.91125">
        <ele>170.77</ele>
        <time>2022-04-10T07:59:37Z</time>
      </trkpt>
      <trkpt lat="48.65274" lon="1.91095">
        <ele>170.77</ele>
        <time>2022-04-10T07:59:20Z</time>
      </trkpt>
      <trkpt lat="48.65283" lon="1.91074">
        <ele>170.77</ele>
        <time>2022-04-10T07:59:08Z</time>
      </trkpt>
      <trkpt lat="48.65283" lon="1.91073">
        <ele>170.77</ele>
        <time>2022-04-10T07:59:07Z</time>
      </trkpt>
      <trkpt lat="48.65283" lon="1.91071">
        <ele>170.77</ele>
        <time>2022-04-10T07:59:06Z</time>
      </trkpt>
      <trkpt lat="48.65282" lon="1.9107">
        <ele>170.77</ele>
        <time>2022-04-10T07:59:05Z</time>
      </trkpt>
      <trkpt lat="48.65283" lon="1.91067">
        <ele>170.77</ele>
        <time>2022-04-10T07:59:04Z</time>
      </trkpt>
      <trkpt lat="48.65284" lon="1.91065">
        <ele>170.77</ele>
        <time>2022-04-10T07:59:03Z</time>
      </trkpt>
      <trkpt lat="48.6528" lon="1.91053">
        <ele>170.77</ele>
        <time>2022-04-10T07:58:43Z</time>
      </trkpt>
      <trkpt lat="48.65266" lon="1.9103">
        <ele>170.77</ele>
        <time>2022-04-10T07:58:27Z</time>
      </trkpt>
      <trkpt lat="48.65246" lon="1.91007">
        <ele>170.77</ele>
        <time>2022-04-10T07:58:11Z</time>
      </trkpt>
      <trkpt lat="48.65245" lon="1.91006">
        <ele>170.77</ele>
        <time>2022-04-10T07:58:10Z</time>
      </trkpt>
      <trkpt lat="48.65244" lon="1.91005">
        <ele>170.77</ele>
        <time>2022-04-10T07:58:09Z</time>
      </trkpt>
      <trkpt lat="48.65242" lon="1.91004">
        <ele>170.77</ele>
        <time>2022-04-10T07:58:08Z</time>
      </trkpt>
      <trkpt lat="48.65241" lon="1.91002">
        <ele>170.77</ele>
        <time>2022-04-10T07:58:07Z</time>
      </trkpt>
      <trkpt lat="48.6524" lon="1.91001">
        <ele>170.77</ele>
        <time>2022-04-10T07:58:06Z</time>
      </trkpt>
      <trkpt lat="48.65234" lon="1.90997">
        <ele>170.77</ele>
        <time>2022-04-10T07:58:02Z</time>
      </trkpt>
      <trkpt lat="48.65233" lon="1.90996">
        <ele>170.77</ele>
        <time>2022-04-10T07:58:01Z</time>
      </trkpt>
      <trkpt lat="48.65232" lon="1.90995">
        <ele>170.77</ele>
        <time>2022-04-10T07:58:00Z</time>
      </trkpt>
      <trkpt lat="48.65231" lon="1.90994">
        <ele>170.77</ele>
        <time>2022-04-10T07:57:59Z</time>
      </trkpt>
      <trkpt lat="48.6523" lon="1.90993">
        <ele>170.77</ele>
        <time>2022-04-10T07:57:58Z</time>
      </trkpt>
      <trkpt lat="48.65229" lon="1.90992">
        <ele>170.77</ele>
        <time>2022-04-10T07:57:57Z</time>
      </trkpt>
      <trkpt lat="48.65228" lon="1.90991">
        <ele>169.81</ele>
        <time>2022-04-10T07:57:56Z</time>
      </trkpt>
      <trkpt lat="48.65226" lon="1.9099">
        <ele>169.81</ele>
        <time>2022-04-10T07:57:55Z</time>
      </trkpt>
      <trkpt lat="48.65225" lon="1.90988">
        <ele>169.81</ele>
        <time>2022-04-10T07:57:54Z</time>
      </trkpt>
      <trkpt lat="48.65224" lon="1.90987">
        <ele>169.81</ele>
        <time>2022-04-10T07:57:53Z</time>
      </trkpt>
      <trkpt lat="48.65223" lon="1.90986">
        <ele>169.81</ele>
        <time>2022-04-10T07:57:52Z</time>
      </trkpt>
      <trkpt lat="48.65222" lon="1.90982">
        <ele>169.81</ele>
        <time>2022-04-10T07:57:50Z</time>
      </trkpt>
      <trkpt lat="48.65217" lon="1.90974">
        <ele>169.81</ele>
        <time>2022-04-10T07:57:44Z</time>
      </trkpt>
      <trkpt lat="48.65201" lon="1.90958">
        <ele>169.81</ele>
        <time>2022-04-10T07:57:31Z</time>
      </trkpt>
      <trkpt lat="48.652" lon="1.90957">
        <ele>169.81</ele>
        <time>2022-04-10T07:57:30Z</time>
      </trkpt>
      <trkpt lat="48.65199" lon="1.90956">
        <ele>169.81</ele>
        <time>2022-04-10T07:57:29Z</time>
      </trkpt>
      <trkpt lat="48.65198" lon="1.90955">
        <ele>169.81</ele>
        <time>2022-04-10T07:57:28Z</time>
      </trkpt>
      <trkpt lat="48.65197" lon="1.90953">
        <ele>169.81</ele>
        <time>2022-04-10T07:57:27Z</time>
      </trkpt>
      <trkpt lat="48.6519" lon="1.90945">
        <ele>169.81</ele>
        <time>2022-04-10T07:57:20Z</time>
      </trkpt>
      <trkpt lat="48.65175" lon="1.90927">
        <ele>169.81</ele>
        <time>2022-04-10T07:57:06Z</time>
      </trkpt>
      <trkpt lat="48.65154" lon="1.90907">
        <ele>169.81</ele>
        <time>2022-04-10T07:56:50Z</time>
      </trkpt>
      <trkpt lat="48.65153" lon="1.90906">
        <ele>169.81</ele>
        <time>2022-04-10T07:56:49Z</time>
      </trkpt>
      <trkpt lat="48.65152" lon="1.90904">
        <ele>169.81</ele>
        <time>2022-04-10T07:56:48Z</time>
      </trkpt>
      <trkpt lat="48.65151" lon="1.90902">
        <ele>169.81</ele>
        <time>2022-04-10T07:56:47Z</time>
      </trkpt>
      <trkpt lat="48.6515" lon="1.90901">
        <ele>169.81</ele>
        <time>2022-04-10T07:56:46Z</time>
      </trkpt>
      <trkpt lat="48.65149" lon="1.90899">
        <ele>169.81</ele>
        <time>2022-04-10T07:56:45Z</time>
      </trkpt>
      <trkpt lat="48.65148" lon="1.90897">
        <ele>169.81</ele>
        <time>2022-04-10T07:56:44Z</time>
      </trkpt>
      <trkpt lat="48.65136" lon="1.90889">
        <ele>169.81</ele>
        <time>2022-04-10T07:56:35Z</time>
      </trkpt>
      <trkpt lat="48.65135" lon="1.90888">
        <ele>169.81</ele>
        <time>2022-04-10T07:56:34Z</time>
      </trkpt>
      <trkpt lat="48.65132" lon="1.90883">
        <ele>169.81</ele>
        <time>2022-04-10T07:56:31Z</time>
      </trkpt>
      <trkpt lat="48.65112" lon="1.90858">
        <ele>169.81</ele>
        <time>2022-04-10T07:56:14Z</time>
      </trkpt>
      <trkpt lat="48.6511" lon="1.90857">
        <ele>169.81</ele>
        <time>2022-04-10T07:56:13Z</time>
      </trkpt>
      <trkpt lat="48.65109" lon="1.90855">
        <ele>169.81</ele>
        <time>2022-04-10T07:56:12Z</time>
      </trkpt>
      <trkpt lat="48.65107" lon="1.90853">
        <ele>169.81</ele>
        <time>2022-04-10T07:56:11Z</time>
      </trkpt>
      <trkpt lat="48.65106" lon="1.90851">
        <ele>169.81</ele>
        <time>2022-04-10T07:56:10Z</time>
      </trkpt>
      <trkpt lat="48.65105" lon="1.9085">
        <ele>169.81</ele>
        <time>2022-04-10T07:56:09Z</time>
      </trkpt>
      <trkpt lat="48.65104" lon="1.90848">
        <ele>169.81</ele>
        <time>2022-04-10T07:56:08Z</time>
      </trkpt>
      <trkpt lat="48.65091" lon="1.90834">
        <ele>169.81</ele>
        <time>2022-04-10T07:55:59Z</time>
      </trkpt>
      <trkpt lat="48.6509" lon="1.90833">
        <ele>169.81</ele>
        <time>2022-04-10T07:55:58Z</time>
      </trkpt>
      <trkpt lat="48.65088" lon="1.90831">
        <ele>169.81</ele>
        <time>2022-04-10T07:55:57Z</time>
      </trkpt>
      <trkpt lat="48.65087" lon="1.9083">
        <ele>169.81</ele>
        <time>2022-04-10T07:55:56Z</time>
      </trkpt>
      <trkpt lat="48.65086" lon="1.90828">
        <ele>169.81</ele>
        <time>2022-04-10T07:55:55Z</time>
      </trkpt>
      <trkpt lat="48.6508" lon="1.9082">
        <ele>169.81</ele>
        <time>2022-04-10T07:55:50Z</time>
      </trkpt>
      <trkpt lat="48.65062" lon="1.908">
        <ele>169.81</ele>
        <time>2022-04-10T07:55:33Z</time>
      </trkpt>
      <trkpt lat="48.65048" lon="1.90784">
        <ele>169.81</ele>
        <time>2022-04-10T07:55:22Z</time>
      </trkpt>
      <trkpt lat="48.65027" lon="1.90764">
        <ele>168.85</ele>
        <time>2022-04-10T07:55:03Z</time>
      </trkpt>
      <trkpt lat="48.65026" lon="1.90763">
        <ele>168.85</ele>
        <time>2022-04-10T07:55:02Z</time>
      </trkpt>
      <trkpt lat="48.65025" lon="1.90762">
        <ele>168.85</ele>
        <time>2022-04-10T07:55:01Z</time>
      </trkpt>
      <trkpt lat="48.65024" lon="1.9076">
        <ele>168.85</ele>
        <time>2022-04-10T07:55:00Z</time>
      </trkpt>
      <trkpt lat="48.65022" lon="1.90759">
        <ele>168.85</ele>
        <time>2022-04-10T07:54:59Z</time>
      </trkpt>
      <trkpt lat="48.6501" lon="1.90748">
        <ele>168.85</ele>
        <time>2022-04-10T07:54:48Z</time>
      </trkpt>
      <trkpt lat="48.64992" lon="1.90729">
        <ele>168.85</ele>
        <time>2022-04-10T07:54:34Z</time>
      </trkpt>
      <trkpt lat="48.6497" lon="1.90704">
        <ele>168.85</ele>
        <time>2022-04-10T07:54:12Z</time>
      </trkpt>
      <trkpt lat="48.64949" lon="1.90681">
        <ele>168.85</ele>
        <time>2022-04-10T07:53:54Z</time>
      </trkpt>
      <trkpt lat="48.64929" lon="1.90659">
        <ele>168.85</ele>
        <time>2022-04-10T07:53:37Z</time>
      </trkpt>
      <trkpt lat="48.64912" lon="1.90637">
        <ele>167.89</ele>
        <time>2022-04-10T07:53:20Z</time>
      </trkpt>
      <trkpt lat="48.64888" lon="1.90611">
        <ele>167.89</ele>
        <time>2022-04-10T07:53:01Z</time>
      </trkpt>
      <trkpt lat="48.64887" lon="1.9061">
        <ele>167.89</ele>
        <time>2022-04-10T07:53:00Z</time>
      </trkpt>
      <trkpt lat="48.64886" lon="1.90608">
        <ele>167.89</ele>
        <time>2022-04-10T07:52:59Z</time>
      </trkpt>
      <trkpt lat="48.64869" lon="1.90588">
        <ele>167.89</ele>
        <time>2022-04-10T07:52:45Z</time>
      </trkpt>
      <trkpt lat="48.64843" lon="1.90561">
        <ele>168.85</ele>
        <time>2022-04-10T07:52:26Z</time>
      </trkpt>
      <trkpt lat="48.64819" lon="1.90537">
        <ele>168.85</ele>
        <time>2022-04-10T07:52:08Z</time>
      </trkpt>
      <trkpt lat="48.64818" lon="1.90535">
        <ele>168.85</ele>
        <time>2022-04-10T07:52:07Z</time>
      </trkpt>
      <trkpt lat="48.64817" lon="1.90534">
        <ele>168.85</ele>
        <time>2022-04-10T07:52:06Z</time>
      </trkpt>
      <trkpt lat="48.64816" lon="1.90532">
        <ele>168.85</ele>
        <time>2022-04-10T07:52:05Z</time>
      </trkpt>
      <trkpt lat="48.64814" lon="1.90531">
        <ele>168.85</ele>
        <time>2022-04-10T07:52:04Z</time>
      </trkpt>
      <trkpt lat="48.64813" lon="1.9053">
        <ele>168.85</ele>
        <time>2022-04-10T07:52:03Z</time>
      </trkpt>
      <trkpt lat="48.64803" lon="1.90522">
        <ele>168.85</ele>
        <time>2022-04-10T07:51:55Z</time>
      </trkpt>
      <trkpt lat="48.64799" lon="1.90516">
        <ele>167.89</ele>
        <time>2022-04-10T07:51:51Z</time>
      </trkpt>
      <trkpt lat="48.64778" lon="1.90493">
        <ele>168.85</ele>
        <time>2022-04-10T07:51:34Z</time>
      </trkpt>
      <trkpt lat="48.64755" lon="1.90466">
        <ele>168.85</ele>
        <time>2022-04-10T07:51:16Z</time>
      </trkpt>
      <trkpt lat="48.64738" lon="1.9045">
        <ele>168.85</ele>
        <time>2022-04-10T07:51:02Z</time>
      </trkpt>
      <trkpt lat="48.6472" lon="1.90429">
        <ele>168.85</ele>
        <time>2022-04-10T07:50:47Z</time>
      </trkpt>
      <trkpt lat="48.64718" lon="1.90428">
        <ele>168.85</ele>
        <time>2022-04-10T07:50:46Z</time>
      </trkpt>
      <trkpt lat="48.64717" lon="1.90427">
        <ele>168.85</ele>
        <time>2022-04-10T07:50:45Z</time>
      </trkpt>
      <trkpt lat="48.64716" lon="1.90425">
        <ele>168.85</ele>
        <time>2022-04-10T07:50:44Z</time>
      </trkpt>
      <trkpt lat="48.64715" lon="1.90424">
        <ele>168.85</ele>
        <time>2022-04-10T07:50:43Z</time>
      </trkpt>
      <trkpt lat="48.64713" lon="1.90421">
        <ele>168.85</ele>
        <time>2022-04-10T07:50:41Z</time>
      </trkpt>
      <trkpt lat="48.64694" lon="1.90397">
        <ele>167.89</ele>
        <time>2022-04-10T07:50:25Z</time>
      </trkpt>
      <trkpt lat="48.64676" lon="1.90378">
        <ele>167.89</ele>
        <time>2022-04-10T07:50:11Z</time>
      </trkpt>
      <trkpt lat="48.64661" lon="1.90361">
        <ele>167.89</ele>
        <time>2022-04-10T07:49:59Z</time>
      </trkpt>
      <trkpt lat="48.6466" lon="1.90359">
        <ele>167.89</ele>
        <time>2022-04-10T07:49:58Z</time>
      </trkpt>
      <trkpt lat="48.64659" lon="1.90357">
        <ele>167.89</ele>
        <time>2022-04-10T07:49:57Z</time>
      </trkpt>
      <trkpt lat="48.64658" lon="1.90356">
        <ele>167.89</ele>
        <time>2022-04-10T07:49:56Z</time>
      </trkpt>
      <trkpt lat="48.64656" lon="1.90354">
        <ele>167.89</ele>
        <time>2022-04-10T07:49:55Z</time>
      </trkpt>
      <trkpt lat="48.64655" lon="1.90353">
        <ele>167.89</ele>
        <time>2022-04-10T07:49:54Z</time>
      </trkpt>
      <trkpt lat="48.64655" lon="1.90352">
        <ele>167.89</ele>
        <time>2022-04-10T07:49:53Z</time>
      </trkpt>
      <trkpt lat="48.64653" lon="1.90351">
        <ele>167.89</ele>
        <time>2022-04-10T07:49:52Z</time>
      </trkpt>
      <trkpt lat="48.64652" lon="1.9035">
        <ele>167.89</ele>
        <time>2022-04-10T07:49:51Z</time>
      </trkpt>
      <trkpt lat="48.64651" lon="1.90348">
        <ele>167.89</ele>
        <time>2022-04-10T07:49:50Z</time>
      </trkpt>
      <trkpt lat="48.6465" lon="1.90346">
        <ele>167.89</ele>
        <time>2022-04-10T07:49:49Z</time>
      </trkpt>
      <trkpt lat="48.64636" lon="1.90333">
        <ele>167.89</ele>
        <time>2022-04-10T07:49:39Z</time>
      </trkpt>
      <trkpt lat="48.64619" lon="1.90315">
        <ele>167.89</ele>
        <time>2022-04-10T07:49:25Z</time>
      </trkpt>
      <trkpt lat="48.64601" lon="1.90295">
        <ele>167.89</ele>
        <time>2022-04-10T07:49:12Z</time>
      </trkpt>
      <trkpt lat="48.64582" lon="1.90274">
        <ele>167.89</ele>
        <time>2022-04-10T07:48:57Z</time>
      </trkpt>
      <trkpt lat="48.64557" lon="1.90248">
        <ele>168.85</ele>
        <time>2022-04-10T07:48:39Z</time>
      </trkpt>
      <trkpt lat="48.6454" lon="1.90229">
        <ele>168.85</ele>
        <time>2022-04-10T07:48:25Z</time>
      </trkpt>
      <trkpt lat="48.64523" lon="1.90206">
        <ele>167.89</ele>
        <time>2022-04-10T07:48:11Z</time>
      </trkpt>
      <trkpt lat="48.64505" lon="1.90188">
        <ele>167.89</ele>
        <time>2022-04-10T07:47:57Z</time>
      </trkpt>
      <trkpt lat="48.64497" lon="1.90177">
        <ele>167.89</ele>
        <time>2022-04-10T07:47:50Z</time>
      </trkpt>
      <trkpt lat="48.64475" lon="1.90155">
        <ele>167.89</ele>
        <time>2022-04-10T07:47:35Z</time>
      </trkpt>
      <trkpt lat="48.64457" lon="1.90133">
        <ele>167.89</ele>
        <time>2022-04-10T07:47:20Z</time>
      </trkpt>
      <trkpt lat="48.64456" lon="1.90132">
        <ele>167.89</ele>
        <time>2022-04-10T07:47:19Z</time>
      </trkpt>
      <trkpt lat="48.64441" lon="1.90115">
        <ele>167.89</ele>
        <time>2022-04-10T07:47:08Z</time>
      </trkpt>
      <trkpt lat="48.64422" lon="1.90095">
        <ele>167.89</ele>
        <time>2022-04-10T07:46:52Z</time>
      </trkpt>
      <trkpt lat="48.64398" lon="1.90069">
        <ele>167.89</ele>
        <time>2022-04-10T07:46:35Z</time>
      </trkpt>
      <trkpt lat="48.64375" lon="1.9004">
        <ele>167.89</ele>
        <time>2022-04-10T07:46:17Z</time>
      </trkpt>
      <trkpt lat="48.64355" lon="1.90018">
        <ele>166.93</ele>
        <time>2022-04-10T07:46:01Z</time>
      </trkpt>
      <trkpt lat="48.64332" lon="1.8999">
        <ele>166.93</ele>
        <time>2022-04-10T07:45:44Z</time>
      </trkpt>
      <trkpt lat="48.64313" lon="1.89973">
        <ele>166.93</ele>
        <time>2022-04-10T07:45:30Z</time>
      </trkpt>
      <trkpt lat="48.64291" lon="1.8995">
        <ele>166.93</ele>
        <time>2022-04-10T07:45:13Z</time>
      </trkpt>
      <trkpt lat="48.64275" lon="1.89931">
        <ele>166.93</ele>
        <time>2022-04-10T07:44:59Z</time>
      </trkpt>
      <trkpt lat="48.64274" lon="1.8993">
        <ele>166.93</ele>
        <time>2022-04-10T07:44:58Z</time>
      </trkpt>
      <trkpt lat="48.6426" lon="1.89913">
        <ele>166.93</ele>
        <time>2022-04-10T07:44:47Z</time>
      </trkpt>
      <trkpt lat="48.64238" lon="1.8989">
        <ele>166.93</ele>
        <time>2022-04-10T07:44:31Z</time>
      </trkpt>
      <trkpt lat="48.64223" lon="1.8987">
        <ele>166.93</ele>
        <time>2022-04-10T07:44:18Z</time>
      </trkpt>
      <trkpt lat="48.64221" lon="1.89869">
        <ele>166.93</ele>
        <time>2022-04-10T07:44:17Z</time>
      </trkpt>
      <trkpt lat="48.6422" lon="1.89867">
        <ele>166.93</ele>
        <time>2022-04-10T07:44:16Z</time>
      </trkpt>
      <trkpt lat="48.64218" lon="1.89866">
        <ele>166.93</ele>
        <time>2022-04-10T07:44:15Z</time>
      </trkpt>
      <trkpt lat="48.64217" lon="1.89865">
        <ele>166.93</ele>
        <time>2022-04-10T07:44:14Z</time>
      </trkpt>
      <trkpt lat="48.64216" lon="1.89864">
        <ele>166.93</ele>
        <time>2022-04-10T07:44:13Z</time>
      </trkpt>
      <trkpt lat="48.64215" lon="1.89864">
        <ele>166.93</ele>
        <time>2022-04-10T07:44:12Z</time>
      </trkpt>
      <trkpt lat="48.64214" lon="1.89863">
        <ele>166.93</ele>
        <time>2022-04-10T07:44:11Z</time>
      </trkpt>
      <trkpt lat="48.64213" lon="1.89862">
        <ele>165.96</ele>
        <time>2022-04-10T07:44:10Z</time>
      </trkpt>
      <trkpt lat="48.64206" lon="1.89854">
        <ele>165.96</ele>
        <time>2022-04-10T07:44:04Z</time>
      </trkpt>
      <trkpt lat="48.64204" lon="1.89853">
        <ele>165.96</ele>
        <time>2022-04-10T07:44:03Z</time>
      </trkpt>
      <trkpt lat="48.64199" lon="1.89847">
        <ele>165.96</ele>
        <time>2022-04-10T07:43:59Z</time>
      </trkpt>
      <trkpt lat="48.64178" lon="1.89825">
        <ele>165.96</ele>
        <time>2022-04-10T07:43:43Z</time>
      </trkpt>
      <trkpt lat="48.64177" lon="1.89822">
        <ele>165.96</ele>
        <time>2022-04-10T07:43:42Z</time>
      </trkpt>
      <trkpt lat="48.64173" lon="1.89818">
        <ele>165.96</ele>
        <time>2022-04-10T07:43:39Z</time>
      </trkpt>
      <trkpt lat="48.64171" lon="1.89817">
        <ele>165.96</ele>
        <time>2022-04-10T07:43:38Z</time>
      </trkpt>
      <trkpt lat="48.6417" lon="1.89815">
        <ele>165.96</ele>
        <time>2022-04-10T07:43:37Z</time>
      </trkpt>
      <trkpt lat="48.64167" lon="1.89811">
        <ele>165.96</ele>
        <time>2022-04-10T07:43:34Z</time>
      </trkpt>
      <trkpt lat="48.64149" lon="1.89789">
        <ele>165.96</ele>
        <time>2022-04-10T07:43:19Z</time>
      </trkpt>
      <trkpt lat="48.64126" lon="1.89764">
        <ele>165.96</ele>
        <time>2022-04-10T07:43:02Z</time>
      </trkpt>
      <trkpt lat="48.64105" lon="1.89741">
        <ele>165.96</ele>
        <time>2022-04-10T07:42:45Z</time>
      </trkpt>
      <trkpt lat="48.64103" lon="1.89739">
        <ele>165.96</ele>
        <time>2022-04-10T07:42:44Z</time>
      </trkpt>
      <trkpt lat="48.64102" lon="1.89738">
        <ele>165.96</ele>
        <time>2022-04-10T07:42:43Z</time>
      </trkpt>
      <trkpt lat="48.641" lon="1.89736">
        <ele>165.96</ele>
        <time>2022-04-10T07:42:42Z</time>
      </trkpt>
      <trkpt lat="48.64099" lon="1.89735">
        <ele>165.96</ele>
        <time>2022-04-10T07:42:41Z</time>
      </trkpt>
      <trkpt lat="48.64098" lon="1.89732">
        <ele>165.96</ele>
        <time>2022-04-10T07:42:40Z</time>
      </trkpt>
      <trkpt lat="48.6408" lon="1.89716">
        <ele>165.96</ele>
        <time>2022-04-10T07:42:25Z</time>
      </trkpt>
      <trkpt lat="48.6406" lon="1.89691">
        <ele>165.96</ele>
        <time>2022-04-10T07:42:09Z</time>
      </trkpt>
      <trkpt lat="48.64043" lon="1.89673">
        <ele>165.96</ele>
        <time>2022-04-10T07:41:55Z</time>
      </trkpt>
      <trkpt lat="48.64042" lon="1.89672">
        <ele>165.96</ele>
        <time>2022-04-10T07:41:54Z</time>
      </trkpt>
      <trkpt lat="48.64041" lon="1.89671">
        <ele>165.96</ele>
        <time>2022-04-10T07:41:53Z</time>
      </trkpt>
      <trkpt lat="48.64039" lon="1.8967">
        <ele>165.96</ele>
        <time>2022-04-10T07:41:52Z</time>
      </trkpt>
      <trkpt lat="48.64038" lon="1.89668">
        <ele>165.96</ele>
        <time>2022-04-10T07:41:51Z</time>
      </trkpt>
      <trkpt lat="48.64036" lon="1.89667">
        <ele>165.96</ele>
        <time>2022-04-10T07:41:50Z</time>
      </trkpt>
      <trkpt lat="48.64014" lon="1.89645">
        <ele>165.96</ele>
        <time>2022-04-10T07:41:31Z</time>
      </trkpt>
      <trkpt lat="48.64013" lon="1.89643">
        <ele>165.96</ele>
        <time>2022-04-10T07:41:30Z</time>
      </trkpt>
      <trkpt lat="48.64003" lon="1.89632">
        <ele>165.96</ele>
        <time>2022-04-10T07:41:22Z</time>
      </trkpt>
      <trkpt lat="48.6398" lon="1.89605">
        <ele>165</ele>
        <time>2022-04-10T07:41:04Z</time>
      </trkpt>
      <trkpt lat="48.63957" lon="1.89578">
        <ele>165</ele>
        <time>2022-04-10T07:40:45Z</time>
      </trkpt>
      <trkpt lat="48.63934" lon="1.89551">
        <ele>165</ele>
        <time>2022-04-10T07:40:26Z</time>
      </trkpt>
      <trkpt lat="48.63916" lon="1.89534">
        <ele>165</ele>
        <time>2022-04-10T07:40:10Z</time>
      </trkpt>
      <trkpt lat="48.63915" lon="1.89532">
        <ele>165</ele>
        <time>2022-04-10T07:40:09Z</time>
      </trkpt>
      <trkpt lat="48.639" lon="1.89516">
        <ele>165</ele>
        <time>2022-04-10T07:39:57Z</time>
      </trkpt>
      <trkpt lat="48.63882" lon="1.89495">
        <ele>165</ele>
        <time>2022-04-10T07:39:41Z</time>
      </trkpt>
      <trkpt lat="48.63865" lon="1.89471">
        <ele>165</ele>
        <time>2022-04-10T07:39:24Z</time>
      </trkpt>
      <trkpt lat="48.63851" lon="1.89451">
        <ele>165</ele>
        <time>2022-04-10T07:39:08Z</time>
      </trkpt>
      <trkpt lat="48.6385" lon="1.89449">
        <ele>165</ele>
        <time>2022-04-10T07:39:07Z</time>
      </trkpt>
      <trkpt lat="48.63849" lon="1.89447">
        <ele>165</ele>
        <time>2022-04-10T07:39:04Z</time>
      </trkpt>
      <trkpt lat="48.63849" lon="1.89447">
        <ele>165</ele>
        <time>2022-04-10T07:39:03Z</time>
      </trkpt>
      <trkpt lat="48.6385" lon="1.89447">
        <ele>165</ele>
        <time>2022-04-10T07:39:02Z</time>
      </trkpt>
      <trkpt lat="48.63849" lon="1.89446">
        <ele>165</ele>
        <time>2022-04-10T07:39:01Z</time>
      </trkpt>
      <trkpt lat="48.63848" lon="1.89445">
        <ele>165</ele>
        <time>2022-04-10T07:39:00Z</time>
      </trkpt>
      <trkpt lat="48.63847" lon="1.89444">
        <ele>165</ele>
        <time>2022-04-10T07:38:59Z</time>
      </trkpt>
      <trkpt lat="48.63847" lon="1.89443">
        <ele>165</ele>
        <time>2022-04-10T07:38:58Z</time>
      </trkpt>
      <trkpt lat="48.63846" lon="1.89442">
        <ele>165</ele>
        <time>2022-04-10T07:38:57Z</time>
      </trkpt>
      <trkpt lat="48.63845" lon="1.89441">
        <ele>165</ele>
        <time>2022-04-10T07:38:56Z</time>
      </trkpt>
      <trkpt lat="48.63847" lon="1.89424">
        <ele>165</ele>
        <time>2022-04-10T07:38:44Z</time>
      </trkpt>
      <trkpt lat="48.63853" lon="1.89405">
        <ele>165</ele>
        <time>2022-04-10T07:38:33Z</time>
      </trkpt>
      <trkpt lat="48.63865" lon="1.89387">
        <ele>165</ele>
        <time>2022-04-10T07:38:21Z</time>
      </trkpt>
      <trkpt lat="48.63875" lon="1.89365">
        <ele>165</ele>
        <time>2022-04-10T07:38:09Z</time>
      </trkpt>
      <trkpt lat="48.63877" lon="1.89363">
        <ele>165</ele>
        <time>2022-04-10T07:38:08Z</time>
      </trkpt>
      <trkpt lat="48.63878" lon="1.89356">
        <ele>165</ele>
        <time>2022-04-10T07:38:04Z</time>
      </trkpt>
      <trkpt lat="48.63883" lon="1.89342">
        <ele>165</ele>
        <time>2022-04-10T07:37:58Z</time>
      </trkpt>
      <trkpt lat="48.63884" lon="1.8934">
        <ele>165</ele>
        <time>2022-04-10T07:37:57Z</time>
      </trkpt>
      <trkpt lat="48.63885" lon="1.89338">
        <ele>165</ele>
        <time>2022-04-10T07:37:56Z</time>
      </trkpt>
      <trkpt lat="48.63886" lon="1.89334">
        <ele>165</ele>
        <time>2022-04-10T07:37:54Z</time>
      </trkpt>
      <trkpt lat="48.6389" lon="1.89322">
        <ele>165</ele>
        <time>2022-04-10T07:37:48Z</time>
      </trkpt>
      <trkpt lat="48.63901" lon="1.89292">
        <ele>165</ele>
        <time>2022-04-10T07:37:33Z</time>
      </trkpt>
      <trkpt lat="48.63913" lon="1.89259">
        <ele>165</ele>
        <time>2022-04-10T07:37:16Z</time>
      </trkpt>
      <trkpt lat="48.63926" lon="1.89228">
        <ele>165</ele>
        <time>2022-04-10T07:37:01Z</time>
      </trkpt>
      <trkpt lat="48.63928" lon="1.89225">
        <ele>165</ele>
        <time>2022-04-10T07:37:00Z</time>
      </trkpt>
      <trkpt lat="48.6393" lon="1.89216">
        <ele>165</ele>
        <time>2022-04-10T07:36:58Z</time>
      </trkpt>
      <trkpt lat="48.63934" lon="1.89202">
        <ele>165</ele>
        <time>2022-04-10T07:36:49Z</time>
      </trkpt>
      <trkpt lat="48.63934" lon="1.89199">
        <ele>165</ele>
        <time>2022-04-10T07:36:47Z</time>
      </trkpt>
      <trkpt lat="48.6394" lon="1.89183">
        <ele>165</ele>
        <time>2022-04-10T07:36:40Z</time>
      </trkpt>
      <trkpt lat="48.63944" lon="1.89161">
        <ele>165</ele>
        <time>2022-04-10T07:36:27Z</time>
      </trkpt>
      <trkpt lat="48.63945" lon="1.89158">
        <ele>165</ele>
        <time>2022-04-10T07:36:26Z</time>
      </trkpt>
      <trkpt lat="48.63946" lon="1.89155">
        <ele>165</ele>
        <time>2022-04-10T07:36:25Z</time>
      </trkpt>
      <trkpt lat="48.63947" lon="1.89152">
        <ele>165</ele>
        <time>2022-04-10T07:36:24Z</time>
      </trkpt>
      <trkpt lat="48.63948" lon="1.8915">
        <ele>165</ele>
        <time>2022-04-10T07:36:23Z</time>
      </trkpt>
      <trkpt lat="48.63949" lon="1.89148">
        <ele>165</ele>
        <time>2022-04-10T07:36:22Z</time>
      </trkpt>
      <trkpt lat="48.63949" lon="1.89146">
        <ele>165</ele>
        <time>2022-04-10T07:36:21Z</time>
      </trkpt>
      <trkpt lat="48.6395" lon="1.89145">
        <ele>165</ele>
        <time>2022-04-10T07:36:20Z</time>
      </trkpt>
      <trkpt lat="48.63951" lon="1.89142">
        <ele>165</ele>
        <time>2022-04-10T07:36:19Z</time>
      </trkpt>
      <trkpt lat="48.63952" lon="1.8914">
        <ele>165</ele>
        <time>2022-04-10T07:36:18Z</time>
      </trkpt>
      <trkpt lat="48.63956" lon="1.89124">
        <ele>165</ele>
        <time>2022-04-10T07:36:09Z</time>
      </trkpt>
      <trkpt lat="48.63958" lon="1.89118">
        <ele>165</ele>
        <time>2022-04-10T07:36:05Z</time>
      </trkpt>
      <trkpt lat="48.63959" lon="1.89115">
        <ele>165</ele>
        <time>2022-04-10T07:36:04Z</time>
      </trkpt>
      <trkpt lat="48.6396" lon="1.89113">
        <ele>165</ele>
        <time>2022-04-10T07:36:03Z</time>
      </trkpt>
      <trkpt lat="48.63961" lon="1.89111">
        <ele>165</ele>
        <time>2022-04-10T07:36:02Z</time>
      </trkpt>
      <trkpt lat="48.63961" lon="1.8911">
        <ele>165</ele>
        <time>2022-04-10T07:36:01Z</time>
      </trkpt>
      <trkpt lat="48.63962" lon="1.89109">
        <ele>165</ele>
        <time>2022-04-10T07:36:00Z</time>
      </trkpt>
      <trkpt lat="48.63963" lon="1.89108">
        <ele>165</ele>
        <time>2022-04-10T07:35:59Z</time>
      </trkpt>
      <trkpt lat="48.63964" lon="1.89107">
        <ele>165</ele>
        <time>2022-04-10T07:35:58Z</time>
      </trkpt>
      <trkpt lat="48.63968" lon="1.89097">
        <ele>165</ele>
        <time>2022-04-10T07:35:54Z</time>
      </trkpt>
      <trkpt lat="48.63982" lon="1.89063">
        <ele>165</ele>
        <time>2022-04-10T07:35:39Z</time>
      </trkpt>
      <trkpt lat="48.63983" lon="1.89057">
        <ele>165</ele>
        <time>2022-04-10T07:35:36Z</time>
      </trkpt>
      <trkpt lat="48.63984" lon="1.89051">
        <ele>165</ele>
        <time>2022-04-10T07:35:31Z</time>
      </trkpt>
      <trkpt lat="48.63985" lon="1.89051">
        <ele>165</ele>
        <time>2022-04-10T07:35:30Z</time>
      </trkpt>
      <trkpt lat="48.63988" lon="1.89039">
        <ele>165</ele>
        <time>2022-04-10T07:35:24Z</time>
      </trkpt>
      <trkpt lat="48.63993" lon="1.89012">
        <ele>165</ele>
        <time>2022-04-10T07:35:11Z</time>
      </trkpt>
      <trkpt lat="48.63993" lon="1.8901">
        <ele>165</ele>
        <time>2022-04-10T07:35:10Z</time>
      </trkpt>
      <trkpt lat="48.63994" lon="1.89008">
        <ele>165</ele>
        <time>2022-04-10T07:35:09Z</time>
      </trkpt>
      <trkpt lat="48.63995" lon="1.89006">
        <ele>165</ele>
        <time>2022-04-10T07:35:08Z</time>
      </trkpt>
      <trkpt lat="48.63995" lon="1.89004">
        <ele>165</ele>
        <time>2022-04-10T07:35:07Z</time>
      </trkpt>
      <trkpt lat="48.63995" lon="1.89002">
        <ele>165</ele>
        <time>2022-04-10T07:35:06Z</time>
      </trkpt>
      <trkpt lat="48.64" lon="1.88991">
        <ele>165</ele>
        <time>2022-04-10T07:35:01Z</time>
      </trkpt>
      <trkpt lat="48.6401" lon="1.88972">
        <ele>165</ele>
        <time>2022-04-10T07:34:51Z</time>
      </trkpt>
      <trkpt lat="48.64012" lon="1.88969">
        <ele>165</ele>
        <time>2022-04-10T07:34:49Z</time>
      </trkpt>
      <trkpt lat="48.64019" lon="1.8895">
        <ele>165</ele>
        <time>2022-04-10T07:34:40Z</time>
      </trkpt>
      <trkpt lat="48.64022" lon="1.88925">
        <ele>165</ele>
        <time>2022-04-10T07:34:28Z</time>
      </trkpt>
      <trkpt lat="48.64025" lon="1.88916">
        <ele>165</ele>
        <time>2022-04-10T07:34:24Z</time>
      </trkpt>
      <trkpt lat="48.64039" lon="1.8889">
        <ele>165</ele>
        <time>2022-04-10T07:34:12Z</time>
      </trkpt>
      <trkpt lat="48.64046" lon="1.88867">
        <ele>165</ele>
        <time>2022-04-10T07:34:00Z</time>
      </trkpt>
      <trkpt lat="48.64058" lon="1.88838">
        <ele>165</ele>
        <time>2022-04-10T07:33:46Z</time>
      </trkpt>
      <trkpt lat="48.64058" lon="1.8883">
        <ele>165</ele>
        <time>2022-04-10T07:33:43Z</time>
      </trkpt>
      <trkpt lat="48.64063" lon="1.88817">
        <ele>165</ele>
        <time>2022-04-10T07:33:33Z</time>
      </trkpt>
      <trkpt lat="48.64076" lon="1.88796">
        <ele>165</ele>
        <time>2022-04-10T07:33:15Z</time>
      </trkpt>
      <trkpt lat="48.64079" lon="1.88785">
        <ele>165</ele>
        <time>2022-04-10T07:33:06Z</time>
      </trkpt>
      <trkpt lat="48.64082" lon="1.88769">
        <ele>165</ele>
        <time>2022-04-10T07:32:49Z</time>
      </trkpt>
      <trkpt lat="48.6408" lon="1.88773">
        <ele>165</ele>
        <time>2022-04-10T07:32:48Z</time>
      </trkpt>
    </trkseg>
  </trk>
</gpx>